<?xml version="1.0" encoding="UTF-8" standalone="no" ?>
<gpx xmlns="http://www.topografix.com/GPX/1/1" xmlns:xsi="http://www.w3.org/2001/XMLSchema-instance" xsi:schemaLocation="http://www.topografix.com/GPX/1/1 http://www.topografix.com/GPX/1/1/gpx.xsd" version="1.1" creator="VisuGPX - https://www.visugpx.com">
  <metadata>
    <name>20200624-163444-180316-etrex-MNT</name>
    <desc><![CDATA[En VTT, une boucle autour de la Chapelle ]]></desc>
  </metadata>
  <trk>
    <name><![CDATA[20200624-163444-180316-etrex-MNT]]></name>
    <trkseg>
      <trkpt lat="44.96833" lon="5.43037">
        <ele>871</ele>
        <time>2020-06-24T14:34:44Z</time>
      </trkpt>
      <trkpt lat="44.96834" lon="5.43036">
        <ele>871</ele>
        <time>2020-06-24T14:34:45Z</time>
      </trkpt>
      <trkpt lat="44.96834" lon="5.43034">
        <ele>871</ele>
        <time>2020-06-24T14:34:46Z</time>
      </trkpt>
      <trkpt lat="44.96826" lon="5.43011">
        <ele>871</ele>
        <time>2020-06-24T14:34:58Z</time>
      </trkpt>
      <trkpt lat="44.96824" lon="5.43011">
        <ele>871</ele>
        <time>2020-06-24T14:34:59Z</time>
      </trkpt>
      <trkpt lat="44.96823" lon="5.43011">
        <ele>871</ele>
        <time>2020-06-24T14:35:00Z</time>
      </trkpt>
      <trkpt lat="44.96821" lon="5.43012">
        <ele>871</ele>
        <time>2020-06-24T14:35:01Z</time>
      </trkpt>
      <trkpt lat="44.96819" lon="5.43011">
        <ele>871</ele>
        <time>2020-06-24T14:35:02Z</time>
      </trkpt>
      <trkpt lat="44.96818" lon="5.43011">
        <ele>871</ele>
        <time>2020-06-24T14:35:03Z</time>
      </trkpt>
      <trkpt lat="44.96817" lon="5.4301">
        <ele>871</ele>
        <time>2020-06-24T14:35:04Z</time>
      </trkpt>
      <trkpt lat="44.96816" lon="5.43009">
        <ele>871</ele>
        <time>2020-06-24T14:35:05Z</time>
      </trkpt>
      <trkpt lat="44.96815" lon="5.43008">
        <ele>871</ele>
        <time>2020-06-24T14:35:06Z</time>
      </trkpt>
      <trkpt lat="44.96814" lon="5.43007">
        <ele>871</ele>
        <time>2020-06-24T14:35:07Z</time>
      </trkpt>
      <trkpt lat="44.96811" lon="5.43003">
        <ele>871</ele>
        <time>2020-06-24T14:35:10Z</time>
      </trkpt>
      <trkpt lat="44.96811" lon="5.43001">
        <ele>871</ele>
        <time>2020-06-24T14:35:11Z</time>
      </trkpt>
      <trkpt lat="44.9681" lon="5.43">
        <ele>871</ele>
        <time>2020-06-24T14:35:12Z</time>
      </trkpt>
      <trkpt lat="44.96809" lon="5.42997">
        <ele>871</ele>
        <time>2020-06-24T14:35:15Z</time>
      </trkpt>
      <trkpt lat="44.96811" lon="5.42996">
        <ele>871</ele>
        <time>2020-06-24T14:35:24Z</time>
      </trkpt>
      <trkpt lat="44.96811" lon="5.42997">
        <ele>871</ele>
        <time>2020-06-24T14:35:25Z</time>
      </trkpt>
      <trkpt lat="44.96811" lon="5.42999">
        <ele>871</ele>
        <time>2020-06-24T14:35:26Z</time>
      </trkpt>
      <trkpt lat="44.96806" lon="5.43034">
        <ele>871</ele>
        <time>2020-06-24T14:35:41Z</time>
      </trkpt>
      <trkpt lat="44.96805" lon="5.43082">
        <ele>871</ele>
        <time>2020-06-24T14:35:54Z</time>
      </trkpt>
      <trkpt lat="44.96803" lon="5.43112">
        <ele>872</ele>
        <time>2020-06-24T14:36:04Z</time>
      </trkpt>
      <trkpt lat="44.96802" lon="5.43113">
        <ele>872</ele>
        <time>2020-06-24T14:36:05Z</time>
      </trkpt>
      <trkpt lat="44.968" lon="5.43114">
        <ele>872</ele>
        <time>2020-06-24T14:36:06Z</time>
      </trkpt>
      <trkpt lat="44.96798" lon="5.43114">
        <ele>872</ele>
        <time>2020-06-24T14:36:07Z</time>
      </trkpt>
      <trkpt lat="44.96796" lon="5.43114">
        <ele>872</ele>
        <time>2020-06-24T14:36:08Z</time>
      </trkpt>
      <trkpt lat="44.96767" lon="5.43118">
        <ele>872</ele>
        <time>2020-06-24T14:36:24Z</time>
      </trkpt>
      <trkpt lat="44.96732" lon="5.43127">
        <ele>871</ele>
        <time>2020-06-24T14:36:38Z</time>
      </trkpt>
      <trkpt lat="44.9673" lon="5.43127">
        <ele>871</ele>
        <time>2020-06-24T14:36:39Z</time>
      </trkpt>
      <trkpt lat="44.96714" lon="5.43118">
        <ele>870</ele>
        <time>2020-06-24T14:36:49Z</time>
      </trkpt>
      <trkpt lat="44.96713" lon="5.43118">
        <ele>870</ele>
        <time>2020-06-24T14:36:50Z</time>
      </trkpt>
      <trkpt lat="44.96712" lon="5.43119">
        <ele>870</ele>
        <time>2020-06-24T14:36:51Z</time>
      </trkpt>
      <trkpt lat="44.96712" lon="5.43122">
        <ele>870</ele>
        <time>2020-06-24T14:36:52Z</time>
      </trkpt>
      <trkpt lat="44.96713" lon="5.43122">
        <ele>870</ele>
        <time>2020-06-24T14:36:53Z</time>
      </trkpt>
      <trkpt lat="44.96714" lon="5.43123">
        <ele>870</ele>
        <time>2020-06-24T14:36:54Z</time>
      </trkpt>
      <trkpt lat="44.96716" lon="5.43122">
        <ele>870</ele>
        <time>2020-06-24T14:36:55Z</time>
      </trkpt>
      <trkpt lat="44.96717" lon="5.43121">
        <ele>870</ele>
        <time>2020-06-24T14:36:56Z</time>
      </trkpt>
      <trkpt lat="44.96718" lon="5.43122">
        <ele>871</ele>
        <time>2020-06-24T14:36:57Z</time>
      </trkpt>
      <trkpt lat="44.96719" lon="5.43122">
        <ele>871</ele>
        <time>2020-06-24T14:36:58Z</time>
      </trkpt>
      <trkpt lat="44.9672" lon="5.43123">
        <ele>871</ele>
        <time>2020-06-24T14:36:59Z</time>
      </trkpt>
      <trkpt lat="44.96721" lon="5.43124">
        <ele>871</ele>
        <time>2020-06-24T14:37:00Z</time>
      </trkpt>
      <trkpt lat="44.96722" lon="5.43125">
        <ele>871</ele>
        <time>2020-06-24T14:37:01Z</time>
      </trkpt>
      <trkpt lat="44.96723" lon="5.43125">
        <ele>871</ele>
        <time>2020-06-24T14:37:02Z</time>
      </trkpt>
      <trkpt lat="44.96724" lon="5.43126">
        <ele>871</ele>
        <time>2020-06-24T14:37:03Z</time>
      </trkpt>
      <trkpt lat="44.96726" lon="5.43126">
        <ele>871</ele>
        <time>2020-06-24T14:37:04Z</time>
      </trkpt>
      <trkpt lat="44.96727" lon="5.43126">
        <ele>871</ele>
        <time>2020-06-24T14:37:05Z</time>
      </trkpt>
      <trkpt lat="44.96729" lon="5.43126">
        <ele>871</ele>
        <time>2020-06-24T14:37:06Z</time>
      </trkpt>
      <trkpt lat="44.96731" lon="5.43126">
        <ele>871</ele>
        <time>2020-06-24T14:37:07Z</time>
      </trkpt>
      <trkpt lat="44.96733" lon="5.43126">
        <ele>871</ele>
        <time>2020-06-24T14:37:08Z</time>
      </trkpt>
      <trkpt lat="44.96734" lon="5.43126">
        <ele>871</ele>
        <time>2020-06-24T14:37:09Z</time>
      </trkpt>
      <trkpt lat="44.96758" lon="5.43122">
        <ele>872</ele>
        <time>2020-06-24T14:37:22Z</time>
      </trkpt>
      <trkpt lat="44.96763" lon="5.4312">
        <ele>872</ele>
        <time>2020-06-24T14:37:25Z</time>
      </trkpt>
      <trkpt lat="44.96787" lon="5.43114">
        <ele>872</ele>
        <time>2020-06-24T14:37:38Z</time>
      </trkpt>
      <trkpt lat="44.96801" lon="5.43112">
        <ele>872</ele>
        <time>2020-06-24T14:37:45Z</time>
      </trkpt>
      <trkpt lat="44.96803" lon="5.4311">
        <ele>872</ele>
        <time>2020-06-24T14:37:46Z</time>
      </trkpt>
      <trkpt lat="44.96804" lon="5.43107">
        <ele>872</ele>
        <time>2020-06-24T14:37:47Z</time>
      </trkpt>
      <trkpt lat="44.96804" lon="5.43105">
        <ele>872</ele>
        <time>2020-06-24T14:37:48Z</time>
      </trkpt>
      <trkpt lat="44.96804" lon="5.43102">
        <ele>872</ele>
        <time>2020-06-24T14:37:49Z</time>
      </trkpt>
      <trkpt lat="44.96804" lon="5.431">
        <ele>872</ele>
        <time>2020-06-24T14:37:50Z</time>
      </trkpt>
      <trkpt lat="44.96805" lon="5.43078">
        <ele>871</ele>
        <time>2020-06-24T14:37:58Z</time>
      </trkpt>
      <trkpt lat="44.96806" lon="5.43075">
        <ele>871</ele>
        <time>2020-06-24T14:37:59Z</time>
      </trkpt>
      <trkpt lat="44.96806" lon="5.43072">
        <ele>871</ele>
        <time>2020-06-24T14:38:00Z</time>
      </trkpt>
      <trkpt lat="44.96808" lon="5.43024">
        <ele>871</ele>
        <time>2020-06-24T14:38:14Z</time>
      </trkpt>
      <trkpt lat="44.9681" lon="5.42974">
        <ele>871</ele>
        <time>2020-06-24T14:38:30Z</time>
      </trkpt>
      <trkpt lat="44.96809" lon="5.42931">
        <ele>871</ele>
        <time>2020-06-24T14:38:45Z</time>
      </trkpt>
      <trkpt lat="44.9682" lon="5.42894">
        <ele>872</ele>
        <time>2020-06-24T14:39:02Z</time>
      </trkpt>
      <trkpt lat="44.96851" lon="5.42887">
        <ele>873</ele>
        <time>2020-06-24T14:39:19Z</time>
      </trkpt>
      <trkpt lat="44.96873" lon="5.42887">
        <ele>874</ele>
        <time>2020-06-24T14:39:32Z</time>
      </trkpt>
      <trkpt lat="44.96875" lon="5.42888">
        <ele>874</ele>
        <time>2020-06-24T14:39:33Z</time>
      </trkpt>
      <trkpt lat="44.96876" lon="5.42889">
        <ele>874</ele>
        <time>2020-06-24T14:39:34Z</time>
      </trkpt>
      <trkpt lat="44.96877" lon="5.4289">
        <ele>874</ele>
        <time>2020-06-24T14:39:35Z</time>
      </trkpt>
      <trkpt lat="44.96879" lon="5.42891">
        <ele>874</ele>
        <time>2020-06-24T14:39:36Z</time>
      </trkpt>
      <trkpt lat="44.96886" lon="5.42894">
        <ele>875</ele>
        <time>2020-06-24T14:39:43Z</time>
      </trkpt>
      <trkpt lat="44.96887" lon="5.42895">
        <ele>875</ele>
        <time>2020-06-24T14:39:44Z</time>
      </trkpt>
      <trkpt lat="44.96888" lon="5.42896">
        <ele>875</ele>
        <time>2020-06-24T14:39:45Z</time>
      </trkpt>
      <trkpt lat="44.96889" lon="5.42897">
        <ele>875</ele>
        <time>2020-06-24T14:39:46Z</time>
      </trkpt>
      <trkpt lat="44.96891" lon="5.42898">
        <ele>875</ele>
        <time>2020-06-24T14:39:47Z</time>
      </trkpt>
      <trkpt lat="44.96892" lon="5.42898">
        <ele>875</ele>
        <time>2020-06-24T14:39:48Z</time>
      </trkpt>
      <trkpt lat="44.96894" lon="5.42899">
        <ele>875</ele>
        <time>2020-06-24T14:39:49Z</time>
      </trkpt>
      <trkpt lat="44.96895" lon="5.429">
        <ele>875</ele>
        <time>2020-06-24T14:39:50Z</time>
      </trkpt>
      <trkpt lat="44.96897" lon="5.42901">
        <ele>875</ele>
        <time>2020-06-24T14:39:51Z</time>
      </trkpt>
      <trkpt lat="44.96898" lon="5.42902">
        <ele>876</ele>
        <time>2020-06-24T14:39:52Z</time>
      </trkpt>
      <trkpt lat="44.969" lon="5.42902">
        <ele>876</ele>
        <time>2020-06-24T14:39:53Z</time>
      </trkpt>
      <trkpt lat="44.96902" lon="5.42903">
        <ele>876</ele>
        <time>2020-06-24T14:39:54Z</time>
      </trkpt>
      <trkpt lat="44.96923" lon="5.42903">
        <ele>877</ele>
        <time>2020-06-24T14:40:08Z</time>
      </trkpt>
      <trkpt lat="44.96926" lon="5.42901">
        <ele>877</ele>
        <time>2020-06-24T14:40:18Z</time>
      </trkpt>
      <trkpt lat="44.96927" lon="5.42898">
        <ele>877</ele>
        <time>2020-06-24T14:40:20Z</time>
      </trkpt>
      <trkpt lat="44.96927" lon="5.42896">
        <ele>877</ele>
        <time>2020-06-24T14:40:21Z</time>
      </trkpt>
      <trkpt lat="44.96926" lon="5.42895">
        <ele>877</ele>
        <time>2020-06-24T14:40:22Z</time>
      </trkpt>
      <trkpt lat="44.96925" lon="5.42894">
        <ele>877</ele>
        <time>2020-06-24T14:40:23Z</time>
      </trkpt>
      <trkpt lat="44.96924" lon="5.42894">
        <ele>877</ele>
        <time>2020-06-24T14:40:24Z</time>
      </trkpt>
      <trkpt lat="44.96923" lon="5.42895">
        <ele>877</ele>
        <time>2020-06-24T14:40:25Z</time>
      </trkpt>
      <trkpt lat="44.96922" lon="5.42896">
        <ele>877</ele>
        <time>2020-06-24T14:40:26Z</time>
      </trkpt>
      <trkpt lat="44.96922" lon="5.42898">
        <ele>877</ele>
        <time>2020-06-24T14:40:27Z</time>
      </trkpt>
      <trkpt lat="44.96921" lon="5.42899">
        <ele>877</ele>
        <time>2020-06-24T14:40:28Z</time>
      </trkpt>
      <trkpt lat="44.96897" lon="5.42901">
        <ele>876</ele>
        <time>2020-06-24T14:40:39Z</time>
      </trkpt>
      <trkpt lat="44.96864" lon="5.42883">
        <ele>874</ele>
        <time>2020-06-24T14:40:51Z</time>
      </trkpt>
      <trkpt lat="44.96863" lon="5.42886">
        <ele>874</ele>
        <time>2020-06-24T14:40:52Z</time>
      </trkpt>
      <trkpt lat="44.96865" lon="5.42887">
        <ele>874</ele>
        <time>2020-06-24T14:40:53Z</time>
      </trkpt>
      <trkpt lat="44.96867" lon="5.42887">
        <ele>874</ele>
        <time>2020-06-24T14:40:54Z</time>
      </trkpt>
      <trkpt lat="44.96868" lon="5.42885">
        <ele>874</ele>
        <time>2020-06-24T14:40:55Z</time>
      </trkpt>
      <trkpt lat="44.96869" lon="5.42884">
        <ele>874</ele>
        <time>2020-06-24T14:40:56Z</time>
      </trkpt>
      <trkpt lat="44.96869" lon="5.42882">
        <ele>874</ele>
        <time>2020-06-24T14:40:57Z</time>
      </trkpt>
      <trkpt lat="44.96868" lon="5.4288">
        <ele>874</ele>
        <time>2020-06-24T14:40:58Z</time>
      </trkpt>
      <trkpt lat="44.96866" lon="5.42879">
        <ele>874</ele>
        <time>2020-06-24T14:40:59Z</time>
      </trkpt>
      <trkpt lat="44.96864" lon="5.42878">
        <ele>874</ele>
        <time>2020-06-24T14:41:00Z</time>
      </trkpt>
      <trkpt lat="44.96862" lon="5.42876">
        <ele>874</ele>
        <time>2020-06-24T14:41:01Z</time>
      </trkpt>
      <trkpt lat="44.9686" lon="5.42874">
        <ele>874</ele>
        <time>2020-06-24T14:41:02Z</time>
      </trkpt>
      <trkpt lat="44.96857" lon="5.4287">
        <ele>873</ele>
        <time>2020-06-24T14:41:03Z</time>
      </trkpt>
      <trkpt lat="44.96822" lon="5.42794">
        <ele>873</ele>
        <time>2020-06-24T14:41:15Z</time>
      </trkpt>
      <trkpt lat="44.96814" lon="5.42779">
        <ele>873</ele>
        <time>2020-06-24T14:41:17Z</time>
      </trkpt>
      <trkpt lat="44.96795" lon="5.4275">
        <ele>873</ele>
        <time>2020-06-24T14:41:21Z</time>
      </trkpt>
      <trkpt lat="44.96788" lon="5.42744">
        <ele>873</ele>
        <time>2020-06-24T14:41:22Z</time>
      </trkpt>
      <trkpt lat="44.96782" lon="5.4274">
        <ele>873</ele>
        <time>2020-06-24T14:41:23Z</time>
      </trkpt>
      <trkpt lat="44.96754" lon="5.42723">
        <ele>873</ele>
        <time>2020-06-24T14:41:27Z</time>
      </trkpt>
      <trkpt lat="44.96705" lon="5.42691">
        <ele>872</ele>
        <time>2020-06-24T14:41:35Z</time>
      </trkpt>
      <trkpt lat="44.96696" lon="5.4268">
        <ele>872</ele>
        <time>2020-06-24T14:41:37Z</time>
      </trkpt>
      <trkpt lat="44.96693" lon="5.42674">
        <ele>873</ele>
        <time>2020-06-24T14:41:38Z</time>
      </trkpt>
      <trkpt lat="44.96684" lon="5.42658">
        <ele>873</ele>
        <time>2020-06-24T14:41:41Z</time>
      </trkpt>
      <trkpt lat="44.96662" lon="5.42613">
        <ele>873</ele>
        <time>2020-06-24T14:41:52Z</time>
      </trkpt>
      <trkpt lat="44.96632" lon="5.42577">
        <ele>873</ele>
        <time>2020-06-24T14:42:07Z</time>
      </trkpt>
      <trkpt lat="44.96601" lon="5.42539">
        <ele>873</ele>
        <time>2020-06-24T14:42:22Z</time>
      </trkpt>
      <trkpt lat="44.96592" lon="5.42525">
        <ele>873</ele>
        <time>2020-06-24T14:42:28Z</time>
      </trkpt>
      <trkpt lat="44.96591" lon="5.42522">
        <ele>873</ele>
        <time>2020-06-24T14:42:29Z</time>
      </trkpt>
      <trkpt lat="44.96589" lon="5.4252">
        <ele>873</ele>
        <time>2020-06-24T14:42:30Z</time>
      </trkpt>
      <trkpt lat="44.96587" lon="5.42517">
        <ele>873</ele>
        <time>2020-06-24T14:42:31Z</time>
      </trkpt>
      <trkpt lat="44.96586" lon="5.42515">
        <ele>873</ele>
        <time>2020-06-24T14:42:32Z</time>
      </trkpt>
      <trkpt lat="44.96585" lon="5.42512">
        <ele>873</ele>
        <time>2020-06-24T14:42:33Z</time>
      </trkpt>
      <trkpt lat="44.96585" lon="5.4251">
        <ele>873</ele>
        <time>2020-06-24T14:42:34Z</time>
      </trkpt>
      <trkpt lat="44.96584" lon="5.42507">
        <ele>873</ele>
        <time>2020-06-24T14:42:35Z</time>
      </trkpt>
      <trkpt lat="44.96583" lon="5.42505">
        <ele>873</ele>
        <time>2020-06-24T14:42:36Z</time>
      </trkpt>
      <trkpt lat="44.96582" lon="5.42503">
        <ele>873</ele>
        <time>2020-06-24T14:42:37Z</time>
      </trkpt>
      <trkpt lat="44.9658" lon="5.42501">
        <ele>873</ele>
        <time>2020-06-24T14:42:38Z</time>
      </trkpt>
      <trkpt lat="44.96579" lon="5.42499">
        <ele>873</ele>
        <time>2020-06-24T14:42:39Z</time>
      </trkpt>
      <trkpt lat="44.96578" lon="5.42497">
        <ele>873</ele>
        <time>2020-06-24T14:42:40Z</time>
      </trkpt>
      <trkpt lat="44.96578" lon="5.42495">
        <ele>873</ele>
        <time>2020-06-24T14:42:41Z</time>
      </trkpt>
      <trkpt lat="44.96575" lon="5.42488">
        <ele>873</ele>
        <time>2020-06-24T14:42:44Z</time>
      </trkpt>
      <trkpt lat="44.96574" lon="5.42487">
        <ele>873</ele>
        <time>2020-06-24T14:42:45Z</time>
      </trkpt>
      <trkpt lat="44.96572" lon="5.42485">
        <ele>873</ele>
        <time>2020-06-24T14:42:46Z</time>
      </trkpt>
      <trkpt lat="44.96572" lon="5.42483">
        <ele>873</ele>
        <time>2020-06-24T14:42:47Z</time>
      </trkpt>
      <trkpt lat="44.96571" lon="5.42482">
        <ele>873</ele>
        <time>2020-06-24T14:42:48Z</time>
      </trkpt>
      <trkpt lat="44.96562" lon="5.4246">
        <ele>874</ele>
        <time>2020-06-24T14:43:01Z</time>
      </trkpt>
      <trkpt lat="44.9656" lon="5.42459">
        <ele>874</ele>
        <time>2020-06-24T14:43:02Z</time>
      </trkpt>
      <trkpt lat="44.96559" lon="5.42459">
        <ele>874</ele>
        <time>2020-06-24T14:43:03Z</time>
      </trkpt>
      <trkpt lat="44.96559" lon="5.42457">
        <ele>874</ele>
        <time>2020-06-24T14:43:04Z</time>
      </trkpt>
      <trkpt lat="44.96558" lon="5.42455">
        <ele>874</ele>
        <time>2020-06-24T14:43:05Z</time>
      </trkpt>
      <trkpt lat="44.96558" lon="5.42453">
        <ele>874</ele>
        <time>2020-06-24T14:43:06Z</time>
      </trkpt>
      <trkpt lat="44.96558" lon="5.42451">
        <ele>874</ele>
        <time>2020-06-24T14:43:07Z</time>
      </trkpt>
      <trkpt lat="44.96557" lon="5.4245">
        <ele>874</ele>
        <time>2020-06-24T14:43:08Z</time>
      </trkpt>
      <trkpt lat="44.96557" lon="5.42448">
        <ele>874</ele>
        <time>2020-06-24T14:43:09Z</time>
      </trkpt>
      <trkpt lat="44.96556" lon="5.42447">
        <ele>874</ele>
        <time>2020-06-24T14:43:10Z</time>
      </trkpt>
      <trkpt lat="44.96555" lon="5.42446">
        <ele>874</ele>
        <time>2020-06-24T14:43:11Z</time>
      </trkpt>
      <trkpt lat="44.96555" lon="5.42444">
        <ele>875</ele>
        <time>2020-06-24T14:43:12Z</time>
      </trkpt>
      <trkpt lat="44.96554" lon="5.42443">
        <ele>875</ele>
        <time>2020-06-24T14:43:13Z</time>
      </trkpt>
      <trkpt lat="44.96554" lon="5.42441">
        <ele>875</ele>
        <time>2020-06-24T14:43:14Z</time>
      </trkpt>
      <trkpt lat="44.96554" lon="5.42439">
        <ele>875</ele>
        <time>2020-06-24T14:43:15Z</time>
      </trkpt>
      <trkpt lat="44.96553" lon="5.42436">
        <ele>875</ele>
        <time>2020-06-24T14:43:17Z</time>
      </trkpt>
      <trkpt lat="44.96552" lon="5.42435">
        <ele>875</ele>
        <time>2020-06-24T14:43:18Z</time>
      </trkpt>
      <trkpt lat="44.96552" lon="5.42433">
        <ele>875</ele>
        <time>2020-06-24T14:43:19Z</time>
      </trkpt>
      <trkpt lat="44.96552" lon="5.42431">
        <ele>876</ele>
        <time>2020-06-24T14:43:20Z</time>
      </trkpt>
      <trkpt lat="44.96552" lon="5.42429">
        <ele>876</ele>
        <time>2020-06-24T14:43:21Z</time>
      </trkpt>
      <trkpt lat="44.96552" lon="5.42428">
        <ele>876</ele>
        <time>2020-06-24T14:43:22Z</time>
      </trkpt>
      <trkpt lat="44.96552" lon="5.42426">
        <ele>876</ele>
        <time>2020-06-24T14:43:23Z</time>
      </trkpt>
      <trkpt lat="44.96551" lon="5.42424">
        <ele>876</ele>
        <time>2020-06-24T14:43:24Z</time>
      </trkpt>
      <trkpt lat="44.96551" lon="5.42423">
        <ele>876</ele>
        <time>2020-06-24T14:43:25Z</time>
      </trkpt>
      <trkpt lat="44.96551" lon="5.42421">
        <ele>876</ele>
        <time>2020-06-24T14:43:26Z</time>
      </trkpt>
      <trkpt lat="44.96549" lon="5.42417">
        <ele>877</ele>
        <time>2020-06-24T14:43:29Z</time>
      </trkpt>
      <trkpt lat="44.96549" lon="5.42415">
        <ele>877</ele>
        <time>2020-06-24T14:43:30Z</time>
      </trkpt>
      <trkpt lat="44.96548" lon="5.42414">
        <ele>877</ele>
        <time>2020-06-24T14:43:31Z</time>
      </trkpt>
      <trkpt lat="44.96548" lon="5.42412">
        <ele>877</ele>
        <time>2020-06-24T14:43:32Z</time>
      </trkpt>
      <trkpt lat="44.96548" lon="5.42411">
        <ele>877</ele>
        <time>2020-06-24T14:43:33Z</time>
      </trkpt>
      <trkpt lat="44.96548" lon="5.42408">
        <ele>877</ele>
        <time>2020-06-24T14:43:35Z</time>
      </trkpt>
      <trkpt lat="44.96548" lon="5.42406">
        <ele>877</ele>
        <time>2020-06-24T14:43:36Z</time>
      </trkpt>
      <trkpt lat="44.96548" lon="5.42404">
        <ele>877</ele>
        <time>2020-06-24T14:43:37Z</time>
      </trkpt>
      <trkpt lat="44.96546" lon="5.42399">
        <ele>878</ele>
        <time>2020-06-24T14:43:41Z</time>
      </trkpt>
      <trkpt lat="44.96546" lon="5.42397">
        <ele>878</ele>
        <time>2020-06-24T14:43:42Z</time>
      </trkpt>
      <trkpt lat="44.96546" lon="5.42396">
        <ele>878</ele>
        <time>2020-06-24T14:43:43Z</time>
      </trkpt>
      <trkpt lat="44.96545" lon="5.42394">
        <ele>878</ele>
        <time>2020-06-24T14:43:44Z</time>
      </trkpt>
      <trkpt lat="44.96545" lon="5.42393">
        <ele>878</ele>
        <time>2020-06-24T14:43:45Z</time>
      </trkpt>
      <trkpt lat="44.96544" lon="5.42391">
        <ele>878</ele>
        <time>2020-06-24T14:43:46Z</time>
      </trkpt>
      <trkpt lat="44.96543" lon="5.4239">
        <ele>878</ele>
        <time>2020-06-24T14:43:47Z</time>
      </trkpt>
      <trkpt lat="44.96543" lon="5.42389">
        <ele>879</ele>
        <time>2020-06-24T14:43:48Z</time>
      </trkpt>
      <trkpt lat="44.96543" lon="5.42387">
        <ele>879</ele>
        <time>2020-06-24T14:43:49Z</time>
      </trkpt>
      <trkpt lat="44.96543" lon="5.42385">
        <ele>879</ele>
        <time>2020-06-24T14:43:50Z</time>
      </trkpt>
      <trkpt lat="44.96542" lon="5.42383">
        <ele>879</ele>
        <time>2020-06-24T14:43:51Z</time>
      </trkpt>
      <trkpt lat="44.96541" lon="5.42382">
        <ele>879</ele>
        <time>2020-06-24T14:43:52Z</time>
      </trkpt>
      <trkpt lat="44.96541" lon="5.4238">
        <ele>879</ele>
        <time>2020-06-24T14:43:53Z</time>
      </trkpt>
      <trkpt lat="44.9654" lon="5.42379">
        <ele>880</ele>
        <time>2020-06-24T14:43:54Z</time>
      </trkpt>
      <trkpt lat="44.9654" lon="5.42377">
        <ele>880</ele>
        <time>2020-06-24T14:43:55Z</time>
      </trkpt>
      <trkpt lat="44.96539" lon="5.42374">
        <ele>880</ele>
        <time>2020-06-24T14:43:57Z</time>
      </trkpt>
      <trkpt lat="44.96538" lon="5.42373">
        <ele>880</ele>
        <time>2020-06-24T14:43:58Z</time>
      </trkpt>
      <trkpt lat="44.96535" lon="5.4237">
        <ele>881</ele>
        <time>2020-06-24T14:44:01Z</time>
      </trkpt>
      <trkpt lat="44.96534" lon="5.4237">
        <ele>881</ele>
        <time>2020-06-24T14:44:02Z</time>
      </trkpt>
      <trkpt lat="44.96533" lon="5.42369">
        <ele>881</ele>
        <time>2020-06-24T14:44:03Z</time>
      </trkpt>
      <trkpt lat="44.96532" lon="5.42366">
        <ele>881</ele>
        <time>2020-06-24T14:44:05Z</time>
      </trkpt>
      <trkpt lat="44.96532" lon="5.42364">
        <ele>881</ele>
        <time>2020-06-24T14:44:06Z</time>
      </trkpt>
      <trkpt lat="44.9653" lon="5.42364">
        <ele>882</ele>
        <time>2020-06-24T14:44:07Z</time>
      </trkpt>
      <trkpt lat="44.96529" lon="5.42363">
        <ele>882</ele>
        <time>2020-06-24T14:44:08Z</time>
      </trkpt>
      <trkpt lat="44.96528" lon="5.42363">
        <ele>882</ele>
        <time>2020-06-24T14:44:09Z</time>
      </trkpt>
      <trkpt lat="44.96526" lon="5.42363">
        <ele>882</ele>
        <time>2020-06-24T14:44:10Z</time>
      </trkpt>
      <trkpt lat="44.96525" lon="5.42362">
        <ele>882</ele>
        <time>2020-06-24T14:44:11Z</time>
      </trkpt>
      <trkpt lat="44.96524" lon="5.42361">
        <ele>882</ele>
        <time>2020-06-24T14:44:12Z</time>
      </trkpt>
      <trkpt lat="44.96523" lon="5.4236">
        <ele>882</ele>
        <time>2020-06-24T14:44:13Z</time>
      </trkpt>
      <trkpt lat="44.96522" lon="5.42358">
        <ele>882</ele>
        <time>2020-06-24T14:44:14Z</time>
      </trkpt>
      <trkpt lat="44.96521" lon="5.42357">
        <ele>882</ele>
        <time>2020-06-24T14:44:15Z</time>
      </trkpt>
      <trkpt lat="44.9652" lon="5.42356">
        <ele>883</ele>
        <time>2020-06-24T14:44:16Z</time>
      </trkpt>
      <trkpt lat="44.96519" lon="5.42356">
        <ele>883</ele>
        <time>2020-06-24T14:44:17Z</time>
      </trkpt>
      <trkpt lat="44.96518" lon="5.42355">
        <ele>883</ele>
        <time>2020-06-24T14:44:18Z</time>
      </trkpt>
      <trkpt lat="44.96517" lon="5.42354">
        <ele>883</ele>
        <time>2020-06-24T14:44:19Z</time>
      </trkpt>
      <trkpt lat="44.96516" lon="5.42353">
        <ele>883</ele>
        <time>2020-06-24T14:44:20Z</time>
      </trkpt>
      <trkpt lat="44.96515" lon="5.42352">
        <ele>883</ele>
        <time>2020-06-24T14:44:21Z</time>
      </trkpt>
      <trkpt lat="44.96514" lon="5.4235">
        <ele>883</ele>
        <time>2020-06-24T14:44:22Z</time>
      </trkpt>
      <trkpt lat="44.96514" lon="5.42349">
        <ele>884</ele>
        <time>2020-06-24T14:44:23Z</time>
      </trkpt>
      <trkpt lat="44.96512" lon="5.42348">
        <ele>884</ele>
        <time>2020-06-24T14:44:24Z</time>
      </trkpt>
      <trkpt lat="44.96512" lon="5.42347">
        <ele>884</ele>
        <time>2020-06-24T14:44:25Z</time>
      </trkpt>
      <trkpt lat="44.96511" lon="5.42346">
        <ele>884</ele>
        <time>2020-06-24T14:44:26Z</time>
      </trkpt>
      <trkpt lat="44.9651" lon="5.42344">
        <ele>884</ele>
        <time>2020-06-24T14:44:27Z</time>
      </trkpt>
      <trkpt lat="44.9651" lon="5.42343">
        <ele>884</ele>
        <time>2020-06-24T14:44:28Z</time>
      </trkpt>
      <trkpt lat="44.96507" lon="5.42344">
        <ele>884</ele>
        <time>2020-06-24T14:44:31Z</time>
      </trkpt>
      <trkpt lat="44.96504" lon="5.42344">
        <ele>884</ele>
        <time>2020-06-24T14:44:34Z</time>
      </trkpt>
      <trkpt lat="44.96503" lon="5.42343">
        <ele>884</ele>
        <time>2020-06-24T14:44:35Z</time>
      </trkpt>
      <trkpt lat="44.96502" lon="5.42341">
        <ele>884</ele>
        <time>2020-06-24T14:44:36Z</time>
      </trkpt>
      <trkpt lat="44.96502" lon="5.4234">
        <ele>885</ele>
        <time>2020-06-24T14:44:37Z</time>
      </trkpt>
      <trkpt lat="44.96501" lon="5.42339">
        <ele>885</ele>
        <time>2020-06-24T14:44:38Z</time>
      </trkpt>
      <trkpt lat="44.96493" lon="5.42325">
        <ele>886</ele>
        <time>2020-06-24T14:44:48Z</time>
      </trkpt>
      <trkpt lat="44.96491" lon="5.42325">
        <ele>886</ele>
        <time>2020-06-24T14:44:49Z</time>
      </trkpt>
      <trkpt lat="44.9649" lon="5.42324">
        <ele>886</ele>
        <time>2020-06-24T14:44:50Z</time>
      </trkpt>
      <trkpt lat="44.96489" lon="5.42325">
        <ele>886</ele>
        <time>2020-06-24T14:44:51Z</time>
      </trkpt>
      <trkpt lat="44.96487" lon="5.42324">
        <ele>886</ele>
        <time>2020-06-24T14:44:52Z</time>
      </trkpt>
      <trkpt lat="44.96486" lon="5.42323">
        <ele>886</ele>
        <time>2020-06-24T14:44:53Z</time>
      </trkpt>
      <trkpt lat="44.96486" lon="5.42321">
        <ele>886</ele>
        <time>2020-06-24T14:44:54Z</time>
      </trkpt>
      <trkpt lat="44.96485" lon="5.4232">
        <ele>887</ele>
        <time>2020-06-24T14:44:55Z</time>
      </trkpt>
      <trkpt lat="44.9647" lon="5.42303">
        <ele>888</ele>
        <time>2020-06-24T14:45:09Z</time>
      </trkpt>
      <trkpt lat="44.96466" lon="5.42301">
        <ele>888</ele>
        <time>2020-06-24T14:45:12Z</time>
      </trkpt>
      <trkpt lat="44.96466" lon="5.423">
        <ele>888</ele>
        <time>2020-06-24T14:45:13Z</time>
      </trkpt>
      <trkpt lat="44.96465" lon="5.42298">
        <ele>888</ele>
        <time>2020-06-24T14:45:14Z</time>
      </trkpt>
      <trkpt lat="44.96464" lon="5.42297">
        <ele>888</ele>
        <time>2020-06-24T14:45:15Z</time>
      </trkpt>
      <trkpt lat="44.96463" lon="5.42298">
        <ele>888</ele>
        <time>2020-06-24T14:45:16Z</time>
      </trkpt>
      <trkpt lat="44.96461" lon="5.42299">
        <ele>888</ele>
        <time>2020-06-24T14:45:17Z</time>
      </trkpt>
      <trkpt lat="44.9646" lon="5.42298">
        <ele>888</ele>
        <time>2020-06-24T14:45:18Z</time>
      </trkpt>
      <trkpt lat="44.96459" lon="5.42297">
        <ele>888</ele>
        <time>2020-06-24T14:45:19Z</time>
      </trkpt>
      <trkpt lat="44.96458" lon="5.42295">
        <ele>888</ele>
        <time>2020-06-24T14:45:20Z</time>
      </trkpt>
      <trkpt lat="44.96458" lon="5.42293">
        <ele>888</ele>
        <time>2020-06-24T14:45:21Z</time>
      </trkpt>
      <trkpt lat="44.96457" lon="5.42291">
        <ele>888</ele>
        <time>2020-06-24T14:45:22Z</time>
      </trkpt>
      <trkpt lat="44.96438" lon="5.4227">
        <ele>890</ele>
        <time>2020-06-24T14:45:38Z</time>
      </trkpt>
      <trkpt lat="44.96434" lon="5.42242">
        <ele>893</ele>
        <time>2020-06-24T14:45:52Z</time>
      </trkpt>
      <trkpt lat="44.96436" lon="5.42237">
        <ele>893</ele>
        <time>2020-06-24T14:45:55Z</time>
      </trkpt>
      <trkpt lat="44.96437" lon="5.42235">
        <ele>893</ele>
        <time>2020-06-24T14:45:56Z</time>
      </trkpt>
      <trkpt lat="44.96438" lon="5.42234">
        <ele>894</ele>
        <time>2020-06-24T14:45:57Z</time>
      </trkpt>
      <trkpt lat="44.96439" lon="5.42233">
        <ele>894</ele>
        <time>2020-06-24T14:45:58Z</time>
      </trkpt>
      <trkpt lat="44.96441" lon="5.42232">
        <ele>894</ele>
        <time>2020-06-24T14:45:59Z</time>
      </trkpt>
      <trkpt lat="44.96442" lon="5.42231">
        <ele>894</ele>
        <time>2020-06-24T14:46:00Z</time>
      </trkpt>
      <trkpt lat="44.96462" lon="5.42227">
        <ele>896</ele>
        <time>2020-06-24T14:46:14Z</time>
      </trkpt>
      <trkpt lat="44.96486" lon="5.42229">
        <ele>898</ele>
        <time>2020-06-24T14:46:30Z</time>
      </trkpt>
      <trkpt lat="44.96504" lon="5.42225">
        <ele>898</ele>
        <time>2020-06-24T14:46:43Z</time>
      </trkpt>
      <trkpt lat="44.96506" lon="5.42224">
        <ele>899</ele>
        <time>2020-06-24T14:46:44Z</time>
      </trkpt>
      <trkpt lat="44.96507" lon="5.42224">
        <ele>899</ele>
        <time>2020-06-24T14:46:45Z</time>
      </trkpt>
      <trkpt lat="44.96515" lon="5.42223">
        <ele>899</ele>
        <time>2020-06-24T14:46:50Z</time>
      </trkpt>
      <trkpt lat="44.96516" lon="5.42222">
        <ele>899</ele>
        <time>2020-06-24T14:46:51Z</time>
      </trkpt>
      <trkpt lat="44.96525" lon="5.42212">
        <ele>900</ele>
        <time>2020-06-24T14:46:59Z</time>
      </trkpt>
      <trkpt lat="44.96526" lon="5.42211">
        <ele>900</ele>
        <time>2020-06-24T14:47:00Z</time>
      </trkpt>
      <trkpt lat="44.96528" lon="5.4221">
        <ele>900</ele>
        <time>2020-06-24T14:47:01Z</time>
      </trkpt>
      <trkpt lat="44.96529" lon="5.42209">
        <ele>900</ele>
        <time>2020-06-24T14:47:02Z</time>
      </trkpt>
      <trkpt lat="44.9653" lon="5.42208">
        <ele>900</ele>
        <time>2020-06-24T14:47:03Z</time>
      </trkpt>
      <trkpt lat="44.96531" lon="5.42206">
        <ele>900</ele>
        <time>2020-06-24T14:47:04Z</time>
      </trkpt>
      <trkpt lat="44.96533" lon="5.42205">
        <ele>901</ele>
        <time>2020-06-24T14:47:05Z</time>
      </trkpt>
      <trkpt lat="44.96541" lon="5.42175">
        <ele>904</ele>
        <time>2020-06-24T14:47:19Z</time>
      </trkpt>
      <trkpt lat="44.9654" lon="5.42173">
        <ele>905</ele>
        <time>2020-06-24T14:47:20Z</time>
      </trkpt>
      <trkpt lat="44.96541" lon="5.42171">
        <ele>905</ele>
        <time>2020-06-24T14:47:21Z</time>
      </trkpt>
      <trkpt lat="44.96541" lon="5.42167">
        <ele>905</ele>
        <time>2020-06-24T14:47:23Z</time>
      </trkpt>
      <trkpt lat="44.9654" lon="5.42166">
        <ele>905</ele>
        <time>2020-06-24T14:47:24Z</time>
      </trkpt>
      <trkpt lat="44.96539" lon="5.42166">
        <ele>905</ele>
        <time>2020-06-24T14:47:25Z</time>
      </trkpt>
      <trkpt lat="44.96538" lon="5.42166">
        <ele>905</ele>
        <time>2020-06-24T14:47:26Z</time>
      </trkpt>
      <trkpt lat="44.96537" lon="5.42168">
        <ele>905</ele>
        <time>2020-06-24T14:47:27Z</time>
      </trkpt>
      <trkpt lat="44.96537" lon="5.4217">
        <ele>905</ele>
        <time>2020-06-24T14:47:28Z</time>
      </trkpt>
      <trkpt lat="44.96536" lon="5.42172">
        <ele>905</ele>
        <time>2020-06-24T14:47:29Z</time>
      </trkpt>
      <trkpt lat="44.96536" lon="5.42175">
        <ele>904</ele>
        <time>2020-06-24T14:47:30Z</time>
      </trkpt>
      <trkpt lat="44.9653" lon="5.42203">
        <ele>901</ele>
        <time>2020-06-24T14:47:40Z</time>
      </trkpt>
      <trkpt lat="44.96531" lon="5.42205">
        <ele>901</ele>
        <time>2020-06-24T14:47:41Z</time>
      </trkpt>
      <trkpt lat="44.96532" lon="5.42205">
        <ele>901</ele>
        <time>2020-06-24T14:47:42Z</time>
      </trkpt>
      <trkpt lat="44.96533" lon="5.42203">
        <ele>901</ele>
        <time>2020-06-24T14:47:43Z</time>
      </trkpt>
      <trkpt lat="44.96534" lon="5.42202">
        <ele>901</ele>
        <time>2020-06-24T14:47:44Z</time>
      </trkpt>
      <trkpt lat="44.96535" lon="5.422">
        <ele>901</ele>
        <time>2020-06-24T14:47:45Z</time>
      </trkpt>
      <trkpt lat="44.96535" lon="5.42198">
        <ele>901</ele>
        <time>2020-06-24T14:47:46Z</time>
      </trkpt>
      <trkpt lat="44.96536" lon="5.42196">
        <ele>902</ele>
        <time>2020-06-24T14:47:47Z</time>
      </trkpt>
      <trkpt lat="44.96537" lon="5.42195">
        <ele>902</ele>
        <time>2020-06-24T14:47:48Z</time>
      </trkpt>
      <trkpt lat="44.96537" lon="5.42193">
        <ele>902</ele>
        <time>2020-06-24T14:47:49Z</time>
      </trkpt>
      <trkpt lat="44.96539" lon="5.4218">
        <ele>904</ele>
        <time>2020-06-24T14:47:55Z</time>
      </trkpt>
      <trkpt lat="44.9654" lon="5.42178">
        <ele>904</ele>
        <time>2020-06-24T14:47:56Z</time>
      </trkpt>
      <trkpt lat="44.9654" lon="5.42177">
        <ele>904</ele>
        <time>2020-06-24T14:47:57Z</time>
      </trkpt>
      <trkpt lat="44.9654" lon="5.42175">
        <ele>904</ele>
        <time>2020-06-24T14:47:58Z</time>
      </trkpt>
      <trkpt lat="44.9654" lon="5.42173">
        <ele>905</ele>
        <time>2020-06-24T14:47:59Z</time>
      </trkpt>
      <trkpt lat="44.9654" lon="5.42171">
        <ele>905</ele>
        <time>2020-06-24T14:48:00Z</time>
      </trkpt>
      <trkpt lat="44.9654" lon="5.42168">
        <ele>905</ele>
        <time>2020-06-24T14:48:01Z</time>
      </trkpt>
      <trkpt lat="44.9654" lon="5.42166">
        <ele>905</ele>
        <time>2020-06-24T14:48:02Z</time>
      </trkpt>
      <trkpt lat="44.96541" lon="5.42164">
        <ele>906</ele>
        <time>2020-06-24T14:48:03Z</time>
      </trkpt>
      <trkpt lat="44.96541" lon="5.42162">
        <ele>906</ele>
        <time>2020-06-24T14:48:04Z</time>
      </trkpt>
      <trkpt lat="44.96541" lon="5.4216">
        <ele>906</ele>
        <time>2020-06-24T14:48:05Z</time>
      </trkpt>
      <trkpt lat="44.96547" lon="5.42117">
        <ele>910</ele>
        <time>2020-06-24T14:48:19Z</time>
      </trkpt>
      <trkpt lat="44.96564" lon="5.42071">
        <ele>906</ele>
        <time>2020-06-24T14:48:34Z</time>
      </trkpt>
      <trkpt lat="44.96579" lon="5.42036">
        <ele>901</ele>
        <time>2020-06-24T14:48:43Z</time>
      </trkpt>
      <trkpt lat="44.96582" lon="5.42031">
        <ele>900</ele>
        <time>2020-06-24T14:48:44Z</time>
      </trkpt>
      <trkpt lat="44.96597" lon="5.41993">
        <ele>898</ele>
        <time>2020-06-24T14:48:50Z</time>
      </trkpt>
      <trkpt lat="44.96602" lon="5.4198">
        <ele>897</ele>
        <time>2020-06-24T14:48:52Z</time>
      </trkpt>
      <trkpt lat="44.96609" lon="5.41961">
        <ele>896</ele>
        <time>2020-06-24T14:48:55Z</time>
      </trkpt>
      <trkpt lat="44.96631" lon="5.41924">
        <ele>894</ele>
        <time>2020-06-24T14:49:05Z</time>
      </trkpt>
      <trkpt lat="44.96652" lon="5.41892">
        <ele>894</ele>
        <time>2020-06-24T14:49:17Z</time>
      </trkpt>
      <trkpt lat="44.96665" lon="5.41847">
        <ele>893</ele>
        <time>2020-06-24T14:49:29Z</time>
      </trkpt>
      <trkpt lat="44.96677" lon="5.41798">
        <ele>892</ele>
        <time>2020-06-24T14:49:45Z</time>
      </trkpt>
      <trkpt lat="44.96679" lon="5.41786">
        <ele>892</ele>
        <time>2020-06-24T14:49:57Z</time>
      </trkpt>
      <trkpt lat="44.96676" lon="5.41783">
        <ele>892</ele>
        <time>2020-06-24T14:50:24Z</time>
      </trkpt>
      <trkpt lat="44.96681" lon="5.41782">
        <ele>892</ele>
        <time>2020-06-24T14:50:33Z</time>
      </trkpt>
      <trkpt lat="44.96682" lon="5.41781">
        <ele>892</ele>
        <time>2020-06-24T14:50:34Z</time>
      </trkpt>
      <trkpt lat="44.96683" lon="5.4178">
        <ele>892</ele>
        <time>2020-06-24T14:50:35Z</time>
      </trkpt>
      <trkpt lat="44.96684" lon="5.41779">
        <ele>892</ele>
        <time>2020-06-24T14:50:36Z</time>
      </trkpt>
      <trkpt lat="44.96685" lon="5.41777">
        <ele>892</ele>
        <time>2020-06-24T14:50:37Z</time>
      </trkpt>
      <trkpt lat="44.96689" lon="5.41773">
        <ele>892</ele>
        <time>2020-06-24T14:50:41Z</time>
      </trkpt>
      <trkpt lat="44.96689" lon="5.41771">
        <ele>892</ele>
        <time>2020-06-24T14:50:42Z</time>
      </trkpt>
      <trkpt lat="44.96689" lon="5.41768">
        <ele>892</ele>
        <time>2020-06-24T14:50:44Z</time>
      </trkpt>
      <trkpt lat="44.9669" lon="5.41766">
        <ele>892</ele>
        <time>2020-06-24T14:50:45Z</time>
      </trkpt>
      <trkpt lat="44.96691" lon="5.41764">
        <ele>892</ele>
        <time>2020-06-24T14:50:46Z</time>
      </trkpt>
      <trkpt lat="44.96694" lon="5.41759">
        <ele>892</ele>
        <time>2020-06-24T14:50:50Z</time>
      </trkpt>
      <trkpt lat="44.96699" lon="5.4176">
        <ele>892</ele>
        <time>2020-06-24T14:51:02Z</time>
      </trkpt>
      <trkpt lat="44.96697" lon="5.41764">
        <ele>892</ele>
        <time>2020-06-24T14:51:09Z</time>
      </trkpt>
      <trkpt lat="44.96696" lon="5.41764">
        <ele>892</ele>
        <time>2020-06-24T14:51:10Z</time>
      </trkpt>
      <trkpt lat="44.96696" lon="5.41762">
        <ele>892</ele>
        <time>2020-06-24T14:51:11Z</time>
      </trkpt>
      <trkpt lat="44.96696" lon="5.4176">
        <ele>892</ele>
        <time>2020-06-24T14:51:12Z</time>
      </trkpt>
      <trkpt lat="44.96697" lon="5.41758">
        <ele>892</ele>
        <time>2020-06-24T14:51:13Z</time>
      </trkpt>
      <trkpt lat="44.96697" lon="5.41756">
        <ele>892</ele>
        <time>2020-06-24T14:51:14Z</time>
      </trkpt>
      <trkpt lat="44.96697" lon="5.41753">
        <ele>892</ele>
        <time>2020-06-24T14:51:15Z</time>
      </trkpt>
      <trkpt lat="44.96698" lon="5.41751">
        <ele>892</ele>
        <time>2020-06-24T14:51:16Z</time>
      </trkpt>
      <trkpt lat="44.96699" lon="5.41748">
        <ele>892</ele>
        <time>2020-06-24T14:51:17Z</time>
      </trkpt>
      <trkpt lat="44.967" lon="5.41745">
        <ele>891</ele>
        <time>2020-06-24T14:51:18Z</time>
      </trkpt>
      <trkpt lat="44.96701" lon="5.41743">
        <ele>891</ele>
        <time>2020-06-24T14:51:19Z</time>
      </trkpt>
      <trkpt lat="44.96702" lon="5.41742">
        <ele>891</ele>
        <time>2020-06-24T14:51:20Z</time>
      </trkpt>
      <trkpt lat="44.96704" lon="5.41737">
        <ele>891</ele>
        <time>2020-06-24T14:51:33Z</time>
      </trkpt>
      <trkpt lat="44.96703" lon="5.41736">
        <ele>891</ele>
        <time>2020-06-24T14:51:34Z</time>
      </trkpt>
      <trkpt lat="44.96703" lon="5.41735">
        <ele>891</ele>
        <time>2020-06-24T14:51:35Z</time>
      </trkpt>
      <trkpt lat="44.96702" lon="5.41733">
        <ele>891</ele>
        <time>2020-06-24T14:51:36Z</time>
      </trkpt>
      <trkpt lat="44.96701" lon="5.41732">
        <ele>891</ele>
        <time>2020-06-24T14:51:37Z</time>
      </trkpt>
      <trkpt lat="44.967" lon="5.41732">
        <ele>890</ele>
        <time>2020-06-24T14:51:38Z</time>
      </trkpt>
      <trkpt lat="44.96698" lon="5.41732">
        <ele>890</ele>
        <time>2020-06-24T14:51:39Z</time>
      </trkpt>
      <trkpt lat="44.96696" lon="5.41731">
        <ele>890</ele>
        <time>2020-06-24T14:51:40Z</time>
      </trkpt>
      <trkpt lat="44.96695" lon="5.4173">
        <ele>890</ele>
        <time>2020-06-24T14:51:41Z</time>
      </trkpt>
      <trkpt lat="44.96693" lon="5.41729">
        <ele>890</ele>
        <time>2020-06-24T14:51:42Z</time>
      </trkpt>
      <trkpt lat="44.96692" lon="5.41728">
        <ele>890</ele>
        <time>2020-06-24T14:51:43Z</time>
      </trkpt>
      <trkpt lat="44.9669" lon="5.41725">
        <ele>890</ele>
        <time>2020-06-24T14:51:45Z</time>
      </trkpt>
      <trkpt lat="44.9669" lon="5.41723">
        <ele>889</ele>
        <time>2020-06-24T14:51:46Z</time>
      </trkpt>
      <trkpt lat="44.96689" lon="5.41722">
        <ele>889</ele>
        <time>2020-06-24T14:51:47Z</time>
      </trkpt>
      <trkpt lat="44.96687" lon="5.41715">
        <ele>889</ele>
        <time>2020-06-24T14:51:50Z</time>
      </trkpt>
      <trkpt lat="44.96685" lon="5.41713">
        <ele>888</ele>
        <time>2020-06-24T14:51:51Z</time>
      </trkpt>
      <trkpt lat="44.96684" lon="5.41712">
        <ele>888</ele>
        <time>2020-06-24T14:51:52Z</time>
      </trkpt>
      <trkpt lat="44.96682" lon="5.41711">
        <ele>888</ele>
        <time>2020-06-24T14:51:53Z</time>
      </trkpt>
      <trkpt lat="44.9668" lon="5.4171">
        <ele>888</ele>
        <time>2020-06-24T14:51:54Z</time>
      </trkpt>
      <trkpt lat="44.96678" lon="5.41709">
        <ele>888</ele>
        <time>2020-06-24T14:51:55Z</time>
      </trkpt>
      <trkpt lat="44.96677" lon="5.41708">
        <ele>888</ele>
        <time>2020-06-24T14:51:56Z</time>
      </trkpt>
      <trkpt lat="44.96674" lon="5.41705">
        <ele>888</ele>
        <time>2020-06-24T14:52:10Z</time>
      </trkpt>
      <trkpt lat="44.96671" lon="5.41708">
        <ele>888</ele>
        <time>2020-06-24T14:52:31Z</time>
      </trkpt>
      <trkpt lat="44.96668" lon="5.41714">
        <ele>888</ele>
        <time>2020-06-24T14:52:47Z</time>
      </trkpt>
      <trkpt lat="44.96667" lon="5.41712">
        <ele>888</ele>
        <time>2020-06-24T14:53:03Z</time>
      </trkpt>
      <trkpt lat="44.96662" lon="5.41709">
        <ele>888</ele>
        <time>2020-06-24T14:53:30Z</time>
      </trkpt>
      <trkpt lat="44.96665" lon="5.41709">
        <ele>888</ele>
        <time>2020-06-24T14:53:58Z</time>
      </trkpt>
      <trkpt lat="44.96659" lon="5.41708">
        <ele>887</ele>
        <time>2020-06-24T14:54:14Z</time>
      </trkpt>
      <trkpt lat="44.96658" lon="5.41708">
        <ele>887</ele>
        <time>2020-06-24T14:54:33Z</time>
      </trkpt>
      <trkpt lat="44.96662" lon="5.41704">
        <ele>887</ele>
        <time>2020-06-24T14:54:49Z</time>
      </trkpt>
      <trkpt lat="44.96664" lon="5.41703">
        <ele>887</ele>
        <time>2020-06-24T14:55:16Z</time>
      </trkpt>
      <trkpt lat="44.96666" lon="5.41705">
        <ele>887</ele>
        <time>2020-06-24T14:55:32Z</time>
      </trkpt>
      <trkpt lat="44.96669" lon="5.41713">
        <ele>888</ele>
        <time>2020-06-24T14:55:45Z</time>
      </trkpt>
      <trkpt lat="44.96671" lon="5.41712">
        <ele>888</ele>
        <time>2020-06-24T14:55:48Z</time>
      </trkpt>
      <trkpt lat="44.96676" lon="5.41714">
        <ele>888</ele>
        <time>2020-06-24T14:56:00Z</time>
      </trkpt>
      <trkpt lat="44.96681" lon="5.41717">
        <ele>889</ele>
        <time>2020-06-24T14:56:07Z</time>
      </trkpt>
      <trkpt lat="44.96686" lon="5.41725">
        <ele>889</ele>
        <time>2020-06-24T14:56:12Z</time>
      </trkpt>
      <trkpt lat="44.96689" lon="5.41727">
        <ele>890</ele>
        <time>2020-06-24T14:56:14Z</time>
      </trkpt>
      <trkpt lat="44.9669" lon="5.41729">
        <ele>890</ele>
        <time>2020-06-24T14:56:15Z</time>
      </trkpt>
      <trkpt lat="44.96693" lon="5.41732">
        <ele>890</ele>
        <time>2020-06-24T14:56:25Z</time>
      </trkpt>
      <trkpt lat="44.96694" lon="5.41732">
        <ele>890</ele>
        <time>2020-06-24T14:56:26Z</time>
      </trkpt>
      <trkpt lat="44.96696" lon="5.41732">
        <ele>890</ele>
        <time>2020-06-24T14:56:27Z</time>
      </trkpt>
      <trkpt lat="44.96697" lon="5.41731">
        <ele>890</ele>
        <time>2020-06-24T14:56:28Z</time>
      </trkpt>
      <trkpt lat="44.96698" lon="5.41728">
        <ele>890</ele>
        <time>2020-06-24T14:56:29Z</time>
      </trkpt>
      <trkpt lat="44.96699" lon="5.41726">
        <ele>890</ele>
        <time>2020-06-24T14:56:30Z</time>
      </trkpt>
      <trkpt lat="44.96706" lon="5.4171">
        <ele>889</ele>
        <time>2020-06-24T14:56:37Z</time>
      </trkpt>
      <trkpt lat="44.96707" lon="5.41707">
        <ele>889</ele>
        <time>2020-06-24T14:56:38Z</time>
      </trkpt>
      <trkpt lat="44.96708" lon="5.41705">
        <ele>889</ele>
        <time>2020-06-24T14:56:39Z</time>
      </trkpt>
      <trkpt lat="44.96711" lon="5.4169">
        <ele>888</ele>
        <time>2020-06-24T14:56:45Z</time>
      </trkpt>
      <trkpt lat="44.9671" lon="5.41688">
        <ele>888</ele>
        <time>2020-06-24T14:56:46Z</time>
      </trkpt>
      <trkpt lat="44.96709" lon="5.41685">
        <ele>888</ele>
        <time>2020-06-24T14:56:47Z</time>
      </trkpt>
      <trkpt lat="44.96707" lon="5.41684">
        <ele>887</ele>
        <time>2020-06-24T14:56:48Z</time>
      </trkpt>
      <trkpt lat="44.96706" lon="5.41682">
        <ele>887</ele>
        <time>2020-06-24T14:56:49Z</time>
      </trkpt>
      <trkpt lat="44.96705" lon="5.4168">
        <ele>887</ele>
        <time>2020-06-24T14:56:50Z</time>
      </trkpt>
      <trkpt lat="44.96703" lon="5.41677">
        <ele>887</ele>
        <time>2020-06-24T14:56:52Z</time>
      </trkpt>
      <trkpt lat="44.96703" lon="5.41662">
        <ele>886</ele>
        <time>2020-06-24T14:57:06Z</time>
      </trkpt>
      <trkpt lat="44.96705" lon="5.4166">
        <ele>886</ele>
        <time>2020-06-24T14:57:21Z</time>
      </trkpt>
      <trkpt lat="44.96705" lon="5.41658">
        <ele>885</ele>
        <time>2020-06-24T14:57:22Z</time>
      </trkpt>
      <trkpt lat="44.96705" lon="5.41657">
        <ele>885</ele>
        <time>2020-06-24T14:57:23Z</time>
      </trkpt>
      <trkpt lat="44.96705" lon="5.41655">
        <ele>885</ele>
        <time>2020-06-24T14:57:24Z</time>
      </trkpt>
      <trkpt lat="44.96705" lon="5.41652">
        <ele>885</ele>
        <time>2020-06-24T14:57:44Z</time>
      </trkpt>
      <trkpt lat="44.96706" lon="5.41651">
        <ele>885</ele>
        <time>2020-06-24T14:57:45Z</time>
      </trkpt>
      <trkpt lat="44.9671" lon="5.4165">
        <ele>885</ele>
        <time>2020-06-24T14:57:49Z</time>
      </trkpt>
      <trkpt lat="44.96711" lon="5.4165">
        <ele>885</ele>
        <time>2020-06-24T14:57:50Z</time>
      </trkpt>
      <trkpt lat="44.96716" lon="5.41647">
        <ele>885</ele>
        <time>2020-06-24T14:57:54Z</time>
      </trkpt>
      <trkpt lat="44.96717" lon="5.41646">
        <ele>885</ele>
        <time>2020-06-24T14:57:55Z</time>
      </trkpt>
      <trkpt lat="44.96742" lon="5.41628">
        <ele>885</ele>
        <time>2020-06-24T14:58:11Z</time>
      </trkpt>
      <trkpt lat="44.96743" lon="5.41628">
        <ele>885</ele>
        <time>2020-06-24T14:58:12Z</time>
      </trkpt>
      <trkpt lat="44.96744" lon="5.41626">
        <ele>885</ele>
        <time>2020-06-24T14:58:13Z</time>
      </trkpt>
      <trkpt lat="44.96764" lon="5.41612">
        <ele>886</ele>
        <time>2020-06-24T14:58:26Z</time>
      </trkpt>
      <trkpt lat="44.96771" lon="5.41605">
        <ele>886</ele>
        <time>2020-06-24T14:58:41Z</time>
      </trkpt>
      <trkpt lat="44.96774" lon="5.41602">
        <ele>886</ele>
        <time>2020-06-24T14:58:49Z</time>
      </trkpt>
      <trkpt lat="44.96773" lon="5.41604">
        <ele>886</ele>
        <time>2020-06-24T14:58:50Z</time>
      </trkpt>
      <trkpt lat="44.96772" lon="5.41606">
        <ele>886</ele>
        <time>2020-06-24T14:58:51Z</time>
      </trkpt>
      <trkpt lat="44.96767" lon="5.41611">
        <ele>886</ele>
        <time>2020-06-24T14:58:57Z</time>
      </trkpt>
      <trkpt lat="44.96771" lon="5.41607">
        <ele>886</ele>
        <time>2020-06-24T14:59:11Z</time>
      </trkpt>
      <trkpt lat="44.96783" lon="5.41598">
        <ele>886</ele>
        <time>2020-06-24T14:59:24Z</time>
      </trkpt>
      <trkpt lat="44.96794" lon="5.41593">
        <ele>887</ele>
        <time>2020-06-24T14:59:35Z</time>
      </trkpt>
      <trkpt lat="44.96801" lon="5.41594">
        <ele>887</ele>
        <time>2020-06-24T14:59:44Z</time>
      </trkpt>
      <trkpt lat="44.96805" lon="5.41597">
        <ele>888</ele>
        <time>2020-06-24T14:59:49Z</time>
      </trkpt>
      <trkpt lat="44.96806" lon="5.41598">
        <ele>888</ele>
        <time>2020-06-24T14:59:50Z</time>
      </trkpt>
      <trkpt lat="44.96812" lon="5.41606">
        <ele>889</ele>
        <time>2020-06-24T15:00:04Z</time>
      </trkpt>
      <trkpt lat="44.96821" lon="5.41606">
        <ele>889</ele>
        <time>2020-06-24T15:00:17Z</time>
      </trkpt>
      <trkpt lat="44.96823" lon="5.41603">
        <ele>889</ele>
        <time>2020-06-24T15:00:19Z</time>
      </trkpt>
      <trkpt lat="44.96823" lon="5.41601">
        <ele>889</ele>
        <time>2020-06-24T15:00:20Z</time>
      </trkpt>
      <trkpt lat="44.96823" lon="5.41595">
        <ele>889</ele>
        <time>2020-06-24T15:00:23Z</time>
      </trkpt>
      <trkpt lat="44.96822" lon="5.41594">
        <ele>889</ele>
        <time>2020-06-24T15:00:24Z</time>
      </trkpt>
      <trkpt lat="44.9682" lon="5.41592">
        <ele>889</ele>
        <time>2020-06-24T15:00:25Z</time>
      </trkpt>
      <trkpt lat="44.96819" lon="5.4159">
        <ele>888</ele>
        <time>2020-06-24T15:00:26Z</time>
      </trkpt>
      <trkpt lat="44.96818" lon="5.41588">
        <ele>888</ele>
        <time>2020-06-24T15:00:27Z</time>
      </trkpt>
      <trkpt lat="44.96818" lon="5.41585">
        <ele>888</ele>
        <time>2020-06-24T15:00:28Z</time>
      </trkpt>
      <trkpt lat="44.96819" lon="5.41582">
        <ele>888</ele>
        <time>2020-06-24T15:00:29Z</time>
      </trkpt>
      <trkpt lat="44.96819" lon="5.41579">
        <ele>888</ele>
        <time>2020-06-24T15:00:30Z</time>
      </trkpt>
      <trkpt lat="44.9682" lon="5.41576">
        <ele>888</ele>
        <time>2020-06-24T15:00:31Z</time>
      </trkpt>
      <trkpt lat="44.96821" lon="5.41572">
        <ele>888</ele>
        <time>2020-06-24T15:00:33Z</time>
      </trkpt>
      <trkpt lat="44.96822" lon="5.4157">
        <ele>888</ele>
        <time>2020-06-24T15:00:34Z</time>
      </trkpt>
      <trkpt lat="44.96823" lon="5.41568">
        <ele>888</ele>
        <time>2020-06-24T15:00:35Z</time>
      </trkpt>
      <trkpt lat="44.96824" lon="5.41541">
        <ele>888</ele>
        <time>2020-06-24T15:00:46Z</time>
      </trkpt>
      <trkpt lat="44.96823" lon="5.4154">
        <ele>888</ele>
        <time>2020-06-24T15:00:47Z</time>
      </trkpt>
      <trkpt lat="44.96822" lon="5.41539">
        <ele>888</ele>
        <time>2020-06-24T15:00:48Z</time>
      </trkpt>
      <trkpt lat="44.96821" lon="5.41536">
        <ele>888</ele>
        <time>2020-06-24T15:00:49Z</time>
      </trkpt>
      <trkpt lat="44.96821" lon="5.41533">
        <ele>888</ele>
        <time>2020-06-24T15:00:50Z</time>
      </trkpt>
      <trkpt lat="44.96821" lon="5.41529">
        <ele>888</ele>
        <time>2020-06-24T15:00:51Z</time>
      </trkpt>
      <trkpt lat="44.96822" lon="5.41524">
        <ele>888</ele>
        <time>2020-06-24T15:00:52Z</time>
      </trkpt>
      <trkpt lat="44.96822" lon="5.41514">
        <ele>888</ele>
        <time>2020-06-24T15:00:55Z</time>
      </trkpt>
      <trkpt lat="44.9682" lon="5.41514">
        <ele>888</ele>
        <time>2020-06-24T15:00:56Z</time>
      </trkpt>
      <trkpt lat="44.96819" lon="5.41515">
        <ele>888</ele>
        <time>2020-06-24T15:00:57Z</time>
      </trkpt>
      <trkpt lat="44.96818" lon="5.41517">
        <ele>888</ele>
        <time>2020-06-24T15:00:58Z</time>
      </trkpt>
      <trkpt lat="44.9682" lon="5.4152">
        <ele>888</ele>
        <time>2020-06-24T15:01:00Z</time>
      </trkpt>
      <trkpt lat="44.96821" lon="5.41519">
        <ele>888</ele>
        <time>2020-06-24T15:01:01Z</time>
      </trkpt>
      <trkpt lat="44.96824" lon="5.41518">
        <ele>888</ele>
        <time>2020-06-24T15:01:15Z</time>
      </trkpt>
      <trkpt lat="44.96823" lon="5.41516">
        <ele>888</ele>
        <time>2020-06-24T15:01:16Z</time>
      </trkpt>
      <trkpt lat="44.96821" lon="5.41514">
        <ele>888</ele>
        <time>2020-06-24T15:01:17Z</time>
      </trkpt>
      <trkpt lat="44.96819" lon="5.41512">
        <ele>888</ele>
        <time>2020-06-24T15:01:18Z</time>
      </trkpt>
      <trkpt lat="44.96816" lon="5.41511">
        <ele>887</ele>
        <time>2020-06-24T15:01:19Z</time>
      </trkpt>
      <trkpt lat="44.96813" lon="5.41511">
        <ele>887</ele>
        <time>2020-06-24T15:01:20Z</time>
      </trkpt>
      <trkpt lat="44.9681" lon="5.41511">
        <ele>887</ele>
        <time>2020-06-24T15:01:21Z</time>
      </trkpt>
      <trkpt lat="44.96808" lon="5.41512">
        <ele>886</ele>
        <time>2020-06-24T15:01:22Z</time>
      </trkpt>
      <trkpt lat="44.96805" lon="5.41513">
        <ele>886</ele>
        <time>2020-06-24T15:01:23Z</time>
      </trkpt>
      <trkpt lat="44.96796" lon="5.41521">
        <ele>885</ele>
        <time>2020-06-24T15:01:26Z</time>
      </trkpt>
      <trkpt lat="44.96793" lon="5.41525">
        <ele>885</ele>
        <time>2020-06-24T15:01:27Z</time>
      </trkpt>
      <trkpt lat="44.96791" lon="5.41529">
        <ele>885</ele>
        <time>2020-06-24T15:01:28Z</time>
      </trkpt>
      <trkpt lat="44.96789" lon="5.41534">
        <ele>885</ele>
        <time>2020-06-24T15:01:29Z</time>
      </trkpt>
      <trkpt lat="44.96789" lon="5.41539">
        <ele>885</ele>
        <time>2020-06-24T15:01:30Z</time>
      </trkpt>
      <trkpt lat="44.96789" lon="5.41543">
        <ele>885</ele>
        <time>2020-06-24T15:01:31Z</time>
      </trkpt>
      <trkpt lat="44.96788" lon="5.41546">
        <ele>885</ele>
        <time>2020-06-24T15:01:32Z</time>
      </trkpt>
      <trkpt lat="44.96787" lon="5.41548">
        <ele>885</ele>
        <time>2020-06-24T15:01:33Z</time>
      </trkpt>
      <trkpt lat="44.96785" lon="5.41548">
        <ele>885</ele>
        <time>2020-06-24T15:01:34Z</time>
      </trkpt>
      <trkpt lat="44.96783" lon="5.41546">
        <ele>885</ele>
        <time>2020-06-24T15:01:35Z</time>
      </trkpt>
      <trkpt lat="44.96781" lon="5.41542">
        <ele>885</ele>
        <time>2020-06-24T15:01:36Z</time>
      </trkpt>
      <trkpt lat="44.96781" lon="5.41538">
        <ele>884</ele>
        <time>2020-06-24T15:01:37Z</time>
      </trkpt>
      <trkpt lat="44.96782" lon="5.41533">
        <ele>884</ele>
        <time>2020-06-24T15:01:38Z</time>
      </trkpt>
      <trkpt lat="44.96782" lon="5.41528">
        <ele>884</ele>
        <time>2020-06-24T15:01:39Z</time>
      </trkpt>
      <trkpt lat="44.96782" lon="5.41523">
        <ele>884</ele>
        <time>2020-06-24T15:01:40Z</time>
      </trkpt>
      <trkpt lat="44.96781" lon="5.41511">
        <ele>884</ele>
        <time>2020-06-24T15:01:42Z</time>
      </trkpt>
      <trkpt lat="44.9678" lon="5.41505">
        <ele>883</ele>
        <time>2020-06-24T15:01:43Z</time>
      </trkpt>
      <trkpt lat="44.96778" lon="5.41501">
        <ele>883</ele>
        <time>2020-06-24T15:01:44Z</time>
      </trkpt>
      <trkpt lat="44.96776" lon="5.41497">
        <ele>883</ele>
        <time>2020-06-24T15:01:45Z</time>
      </trkpt>
      <trkpt lat="44.96775" lon="5.41492">
        <ele>882</ele>
        <time>2020-06-24T15:01:46Z</time>
      </trkpt>
      <trkpt lat="44.96774" lon="5.41486">
        <ele>882</ele>
        <time>2020-06-24T15:01:47Z</time>
      </trkpt>
      <trkpt lat="44.96775" lon="5.41481">
        <ele>882</ele>
        <time>2020-06-24T15:01:48Z</time>
      </trkpt>
      <trkpt lat="44.96775" lon="5.41477">
        <ele>882</ele>
        <time>2020-06-24T15:01:49Z</time>
      </trkpt>
      <trkpt lat="44.96775" lon="5.41474">
        <ele>882</ele>
        <time>2020-06-24T15:01:50Z</time>
      </trkpt>
      <trkpt lat="44.96776" lon="5.4147">
        <ele>882</ele>
        <time>2020-06-24T15:01:51Z</time>
      </trkpt>
      <trkpt lat="44.96777" lon="5.41467">
        <ele>882</ele>
        <time>2020-06-24T15:01:52Z</time>
      </trkpt>
      <trkpt lat="44.96792" lon="5.41406">
        <ele>882</ele>
        <time>2020-06-24T15:02:08Z</time>
      </trkpt>
      <trkpt lat="44.96812" lon="5.41339">
        <ele>881</ele>
        <time>2020-06-24T15:02:23Z</time>
      </trkpt>
      <trkpt lat="44.96816" lon="5.41331">
        <ele>882</ele>
        <time>2020-06-24T15:02:32Z</time>
      </trkpt>
      <trkpt lat="44.96818" lon="5.41328">
        <ele>882</ele>
        <time>2020-06-24T15:02:59Z</time>
      </trkpt>
      <trkpt lat="44.96822" lon="5.41321">
        <ele>882</ele>
        <time>2020-06-24T15:03:02Z</time>
      </trkpt>
      <trkpt lat="44.96823" lon="5.41318">
        <ele>882</ele>
        <time>2020-06-24T15:03:03Z</time>
      </trkpt>
      <trkpt lat="44.96832" lon="5.4129">
        <ele>882</ele>
        <time>2020-06-24T15:03:17Z</time>
      </trkpt>
      <trkpt lat="44.96834" lon="5.41285">
        <ele>881</ele>
        <time>2020-06-24T15:03:20Z</time>
      </trkpt>
      <trkpt lat="44.96835" lon="5.41283">
        <ele>881</ele>
        <time>2020-06-24T15:03:21Z</time>
      </trkpt>
      <trkpt lat="44.96836" lon="5.41282">
        <ele>881</ele>
        <time>2020-06-24T15:03:22Z</time>
      </trkpt>
      <trkpt lat="44.96838" lon="5.4128">
        <ele>882</ele>
        <time>2020-06-24T15:03:23Z</time>
      </trkpt>
      <trkpt lat="44.96839" lon="5.41279">
        <ele>882</ele>
        <time>2020-06-24T15:03:24Z</time>
      </trkpt>
      <trkpt lat="44.9684" lon="5.41277">
        <ele>882</ele>
        <time>2020-06-24T15:03:25Z</time>
      </trkpt>
      <trkpt lat="44.96841" lon="5.41276">
        <ele>882</ele>
        <time>2020-06-24T15:03:26Z</time>
      </trkpt>
      <trkpt lat="44.96842" lon="5.41274">
        <ele>882</ele>
        <time>2020-06-24T15:03:27Z</time>
      </trkpt>
      <trkpt lat="44.96843" lon="5.41273">
        <ele>882</ele>
        <time>2020-06-24T15:03:28Z</time>
      </trkpt>
      <trkpt lat="44.96844" lon="5.41271">
        <ele>882</ele>
        <time>2020-06-24T15:03:29Z</time>
      </trkpt>
      <trkpt lat="44.96845" lon="5.4127">
        <ele>882</ele>
        <time>2020-06-24T15:03:30Z</time>
      </trkpt>
      <trkpt lat="44.96847" lon="5.41266">
        <ele>882</ele>
        <time>2020-06-24T15:03:32Z</time>
      </trkpt>
      <trkpt lat="44.96848" lon="5.41265">
        <ele>882</ele>
        <time>2020-06-24T15:03:33Z</time>
      </trkpt>
      <trkpt lat="44.96849" lon="5.41264">
        <ele>882</ele>
        <time>2020-06-24T15:03:34Z</time>
      </trkpt>
      <trkpt lat="44.9685" lon="5.41263">
        <ele>882</ele>
        <time>2020-06-24T15:03:35Z</time>
      </trkpt>
      <trkpt lat="44.96851" lon="5.41262">
        <ele>882</ele>
        <time>2020-06-24T15:03:36Z</time>
      </trkpt>
      <trkpt lat="44.96853" lon="5.4126">
        <ele>882</ele>
        <time>2020-06-24T15:03:38Z</time>
      </trkpt>
      <trkpt lat="44.96854" lon="5.4126">
        <ele>882</ele>
        <time>2020-06-24T15:03:39Z</time>
      </trkpt>
      <trkpt lat="44.96865" lon="5.41265">
        <ele>883</ele>
        <time>2020-06-24T15:03:49Z</time>
      </trkpt>
      <trkpt lat="44.96866" lon="5.41265">
        <ele>884</ele>
        <time>2020-06-24T15:03:50Z</time>
      </trkpt>
      <trkpt lat="44.96867" lon="5.41266">
        <ele>884</ele>
        <time>2020-06-24T15:03:51Z</time>
      </trkpt>
      <trkpt lat="44.96874" lon="5.4127">
        <ele>885</ele>
        <time>2020-06-24T15:03:59Z</time>
      </trkpt>
      <trkpt lat="44.96874" lon="5.41271">
        <ele>885</ele>
        <time>2020-06-24T15:04:00Z</time>
      </trkpt>
      <trkpt lat="44.96875" lon="5.41272">
        <ele>885</ele>
        <time>2020-06-24T15:04:01Z</time>
      </trkpt>
      <trkpt lat="44.96877" lon="5.41274">
        <ele>885</ele>
        <time>2020-06-24T15:04:03Z</time>
      </trkpt>
      <trkpt lat="44.96884" lon="5.41285">
        <ele>887</ele>
        <time>2020-06-24T15:04:15Z</time>
      </trkpt>
      <trkpt lat="44.96884" lon="5.41287">
        <ele>887</ele>
        <time>2020-06-24T15:04:16Z</time>
      </trkpt>
      <trkpt lat="44.96885" lon="5.41292">
        <ele>888</ele>
        <time>2020-06-24T15:04:20Z</time>
      </trkpt>
      <trkpt lat="44.96887" lon="5.41298">
        <ele>888</ele>
        <time>2020-06-24T15:04:23Z</time>
      </trkpt>
      <trkpt lat="44.96887" lon="5.41299">
        <ele>888</ele>
        <time>2020-06-24T15:04:24Z</time>
      </trkpt>
      <trkpt lat="44.96887" lon="5.41301">
        <ele>888</ele>
        <time>2020-06-24T15:04:25Z</time>
      </trkpt>
      <trkpt lat="44.96887" lon="5.41303">
        <ele>889</ele>
        <time>2020-06-24T15:04:26Z</time>
      </trkpt>
      <trkpt lat="44.96886" lon="5.41309">
        <ele>889</ele>
        <time>2020-06-24T15:04:31Z</time>
      </trkpt>
      <trkpt lat="44.96885" lon="5.41311">
        <ele>889</ele>
        <time>2020-06-24T15:04:32Z</time>
      </trkpt>
      <trkpt lat="44.96883" lon="5.41322">
        <ele>890</ele>
        <time>2020-06-24T15:04:39Z</time>
      </trkpt>
      <trkpt lat="44.96883" lon="5.41323">
        <ele>890</ele>
        <time>2020-06-24T15:04:40Z</time>
      </trkpt>
      <trkpt lat="44.96883" lon="5.41325">
        <ele>890</ele>
        <time>2020-06-24T15:04:41Z</time>
      </trkpt>
      <trkpt lat="44.96883" lon="5.41326">
        <ele>890</ele>
        <time>2020-06-24T15:04:42Z</time>
      </trkpt>
      <trkpt lat="44.96883" lon="5.41328">
        <ele>890</ele>
        <time>2020-06-24T15:04:43Z</time>
      </trkpt>
      <trkpt lat="44.96882" lon="5.41329">
        <ele>890</ele>
        <time>2020-06-24T15:04:44Z</time>
      </trkpt>
      <trkpt lat="44.96882" lon="5.4133">
        <ele>890</ele>
        <time>2020-06-24T15:04:45Z</time>
      </trkpt>
      <trkpt lat="44.9688" lon="5.41339">
        <ele>890</ele>
        <time>2020-06-24T15:04:53Z</time>
      </trkpt>
      <trkpt lat="44.9688" lon="5.41342">
        <ele>890</ele>
        <time>2020-06-24T15:04:54Z</time>
      </trkpt>
      <trkpt lat="44.96879" lon="5.41343">
        <ele>890</ele>
        <time>2020-06-24T15:04:55Z</time>
      </trkpt>
      <trkpt lat="44.96878" lon="5.41345">
        <ele>890</ele>
        <time>2020-06-24T15:04:56Z</time>
      </trkpt>
      <trkpt lat="44.96877" lon="5.41347">
        <ele>890</ele>
        <time>2020-06-24T15:04:57Z</time>
      </trkpt>
      <trkpt lat="44.96876" lon="5.41349">
        <ele>890</ele>
        <time>2020-06-24T15:04:58Z</time>
      </trkpt>
      <trkpt lat="44.96876" lon="5.41351">
        <ele>890</ele>
        <time>2020-06-24T15:04:59Z</time>
      </trkpt>
      <trkpt lat="44.96871" lon="5.41376">
        <ele>891</ele>
        <time>2020-06-24T15:05:14Z</time>
      </trkpt>
      <trkpt lat="44.96871" lon="5.41378">
        <ele>891</ele>
        <time>2020-06-24T15:05:15Z</time>
      </trkpt>
      <trkpt lat="44.96869" lon="5.41385">
        <ele>891</ele>
        <time>2020-06-24T15:05:21Z</time>
      </trkpt>
      <trkpt lat="44.96863" lon="5.41412">
        <ele>891</ele>
        <time>2020-06-24T15:05:37Z</time>
      </trkpt>
      <trkpt lat="44.96862" lon="5.41414">
        <ele>890</ele>
        <time>2020-06-24T15:05:38Z</time>
      </trkpt>
      <trkpt lat="44.96861" lon="5.41415">
        <ele>890</ele>
        <time>2020-06-24T15:05:39Z</time>
      </trkpt>
      <trkpt lat="44.9686" lon="5.41417">
        <ele>890</ele>
        <time>2020-06-24T15:05:40Z</time>
      </trkpt>
      <trkpt lat="44.96859" lon="5.41419">
        <ele>890</ele>
        <time>2020-06-24T15:05:41Z</time>
      </trkpt>
      <trkpt lat="44.96858" lon="5.41421">
        <ele>890</ele>
        <time>2020-06-24T15:05:42Z</time>
      </trkpt>
      <trkpt lat="44.96858" lon="5.41423">
        <ele>890</ele>
        <time>2020-06-24T15:05:43Z</time>
      </trkpt>
      <trkpt lat="44.96849" lon="5.41461">
        <ele>890</ele>
        <time>2020-06-24T15:06:00Z</time>
      </trkpt>
      <trkpt lat="44.96836" lon="5.41505">
        <ele>889</ele>
        <time>2020-06-24T15:06:13Z</time>
      </trkpt>
      <trkpt lat="44.96831" lon="5.41562">
        <ele>889</ele>
        <time>2020-06-24T15:06:27Z</time>
      </trkpt>
      <trkpt lat="44.96836" lon="5.41563">
        <ele>889</ele>
        <time>2020-06-24T15:06:29Z</time>
      </trkpt>
      <trkpt lat="44.96838" lon="5.41563">
        <ele>890</ele>
        <time>2020-06-24T15:06:30Z</time>
      </trkpt>
      <trkpt lat="44.96839" lon="5.41561">
        <ele>890</ele>
        <time>2020-06-24T15:06:31Z</time>
      </trkpt>
      <trkpt lat="44.96841" lon="5.4156">
        <ele>890</ele>
        <time>2020-06-24T15:06:32Z</time>
      </trkpt>
      <trkpt lat="44.96842" lon="5.41559">
        <ele>890</ele>
        <time>2020-06-24T15:06:33Z</time>
      </trkpt>
      <trkpt lat="44.96844" lon="5.41558">
        <ele>890</ele>
        <time>2020-06-24T15:06:34Z</time>
      </trkpt>
      <trkpt lat="44.96845" lon="5.41557">
        <ele>890</ele>
        <time>2020-06-24T15:06:35Z</time>
      </trkpt>
      <trkpt lat="44.96848" lon="5.41555">
        <ele>890</ele>
        <time>2020-06-24T15:06:38Z</time>
      </trkpt>
      <trkpt lat="44.96848" lon="5.41554">
        <ele>890</ele>
        <time>2020-06-24T15:06:39Z</time>
      </trkpt>
      <trkpt lat="44.96849" lon="5.41553">
        <ele>891</ele>
        <time>2020-06-24T15:06:40Z</time>
      </trkpt>
      <trkpt lat="44.9685" lon="5.41551">
        <ele>891</ele>
        <time>2020-06-24T15:06:41Z</time>
      </trkpt>
      <trkpt lat="44.96851" lon="5.4155">
        <ele>891</ele>
        <time>2020-06-24T15:06:42Z</time>
      </trkpt>
      <trkpt lat="44.96852" lon="5.41549">
        <ele>891</ele>
        <time>2020-06-24T15:06:43Z</time>
      </trkpt>
      <trkpt lat="44.96855" lon="5.41549">
        <ele>891</ele>
        <time>2020-06-24T15:06:47Z</time>
      </trkpt>
      <trkpt lat="44.96856" lon="5.41549">
        <ele>891</ele>
        <time>2020-06-24T15:06:48Z</time>
      </trkpt>
      <trkpt lat="44.96858" lon="5.41549">
        <ele>891</ele>
        <time>2020-06-24T15:06:49Z</time>
      </trkpt>
      <trkpt lat="44.96878" lon="5.41548">
        <ele>893</ele>
        <time>2020-06-24T15:07:02Z</time>
      </trkpt>
      <trkpt lat="44.969" lon="5.41555">
        <ele>895</ele>
        <time>2020-06-24T15:07:19Z</time>
      </trkpt>
      <trkpt lat="44.96919" lon="5.41563">
        <ele>896</ele>
        <time>2020-06-24T15:07:35Z</time>
      </trkpt>
      <trkpt lat="44.96928" lon="5.41566">
        <ele>896</ele>
        <time>2020-06-24T15:07:42Z</time>
      </trkpt>
      <trkpt lat="44.96929" lon="5.41567">
        <ele>896</ele>
        <time>2020-06-24T15:07:43Z</time>
      </trkpt>
      <trkpt lat="44.96931" lon="5.41567">
        <ele>897</ele>
        <time>2020-06-24T15:07:44Z</time>
      </trkpt>
      <trkpt lat="44.96942" lon="5.41573">
        <ele>897</ele>
        <time>2020-06-24T15:07:56Z</time>
      </trkpt>
      <trkpt lat="44.96943" lon="5.41574">
        <ele>897</ele>
        <time>2020-06-24T15:07:57Z</time>
      </trkpt>
      <trkpt lat="44.96944" lon="5.41575">
        <ele>897</ele>
        <time>2020-06-24T15:07:58Z</time>
      </trkpt>
      <trkpt lat="44.96945" lon="5.41576">
        <ele>897</ele>
        <time>2020-06-24T15:07:59Z</time>
      </trkpt>
      <trkpt lat="44.96946" lon="5.41576">
        <ele>897</ele>
        <time>2020-06-24T15:08:00Z</time>
      </trkpt>
      <trkpt lat="44.96948" lon="5.41576">
        <ele>898</ele>
        <time>2020-06-24T15:08:01Z</time>
      </trkpt>
      <trkpt lat="44.96949" lon="5.41576">
        <ele>898</ele>
        <time>2020-06-24T15:08:02Z</time>
      </trkpt>
      <trkpt lat="44.9695" lon="5.41577">
        <ele>898</ele>
        <time>2020-06-24T15:08:03Z</time>
      </trkpt>
      <trkpt lat="44.96952" lon="5.4158">
        <ele>898</ele>
        <time>2020-06-24T15:08:06Z</time>
      </trkpt>
      <trkpt lat="44.96953" lon="5.4158">
        <ele>898</ele>
        <time>2020-06-24T15:08:07Z</time>
      </trkpt>
      <trkpt lat="44.96954" lon="5.4158">
        <ele>898</ele>
        <time>2020-06-24T15:08:08Z</time>
      </trkpt>
      <trkpt lat="44.96956" lon="5.41581">
        <ele>898</ele>
        <time>2020-06-24T15:08:09Z</time>
      </trkpt>
      <trkpt lat="44.96957" lon="5.41582">
        <ele>898</ele>
        <time>2020-06-24T15:08:10Z</time>
      </trkpt>
      <trkpt lat="44.96958" lon="5.41583">
        <ele>898</ele>
        <time>2020-06-24T15:08:11Z</time>
      </trkpt>
      <trkpt lat="44.96959" lon="5.41584">
        <ele>898</ele>
        <time>2020-06-24T15:08:12Z</time>
      </trkpt>
      <trkpt lat="44.9696" lon="5.41584">
        <ele>899</ele>
        <time>2020-06-24T15:08:13Z</time>
      </trkpt>
      <trkpt lat="44.96961" lon="5.41585">
        <ele>899</ele>
        <time>2020-06-24T15:08:14Z</time>
      </trkpt>
      <trkpt lat="44.96962" lon="5.41585">
        <ele>899</ele>
        <time>2020-06-24T15:08:15Z</time>
      </trkpt>
      <trkpt lat="44.96964" lon="5.41585">
        <ele>899</ele>
        <time>2020-06-24T15:08:16Z</time>
      </trkpt>
      <trkpt lat="44.96969" lon="5.41588">
        <ele>899</ele>
        <time>2020-06-24T15:08:21Z</time>
      </trkpt>
      <trkpt lat="44.9697" lon="5.41588">
        <ele>899</ele>
        <time>2020-06-24T15:08:22Z</time>
      </trkpt>
      <trkpt lat="44.96971" lon="5.41589">
        <ele>900</ele>
        <time>2020-06-24T15:08:23Z</time>
      </trkpt>
      <trkpt lat="44.96972" lon="5.41589">
        <ele>900</ele>
        <time>2020-06-24T15:08:24Z</time>
      </trkpt>
      <trkpt lat="44.96973" lon="5.4159">
        <ele>900</ele>
        <time>2020-06-24T15:08:25Z</time>
      </trkpt>
      <trkpt lat="44.96974" lon="5.41591">
        <ele>900</ele>
        <time>2020-06-24T15:08:26Z</time>
      </trkpt>
      <trkpt lat="44.96975" lon="5.41591">
        <ele>900</ele>
        <time>2020-06-24T15:08:27Z</time>
      </trkpt>
      <trkpt lat="44.96976" lon="5.41592">
        <ele>900</ele>
        <time>2020-06-24T15:08:28Z</time>
      </trkpt>
      <trkpt lat="44.96977" lon="5.41592">
        <ele>900</ele>
        <time>2020-06-24T15:08:29Z</time>
      </trkpt>
      <trkpt lat="44.96978" lon="5.41593">
        <ele>900</ele>
        <time>2020-06-24T15:08:30Z</time>
      </trkpt>
      <trkpt lat="44.96979" lon="5.41594">
        <ele>900</ele>
        <time>2020-06-24T15:08:31Z</time>
      </trkpt>
      <trkpt lat="44.96981" lon="5.41595">
        <ele>901</ele>
        <time>2020-06-24T15:08:32Z</time>
      </trkpt>
      <trkpt lat="44.96982" lon="5.41595">
        <ele>901</ele>
        <time>2020-06-24T15:08:33Z</time>
      </trkpt>
      <trkpt lat="44.96983" lon="5.41596">
        <ele>901</ele>
        <time>2020-06-24T15:08:34Z</time>
      </trkpt>
      <trkpt lat="44.96987" lon="5.41597">
        <ele>901</ele>
        <time>2020-06-24T15:08:37Z</time>
      </trkpt>
      <trkpt lat="44.96988" lon="5.41597">
        <ele>901</ele>
        <time>2020-06-24T15:08:38Z</time>
      </trkpt>
      <trkpt lat="44.96989" lon="5.41598">
        <ele>901</ele>
        <time>2020-06-24T15:08:39Z</time>
      </trkpt>
      <trkpt lat="44.96991" lon="5.41599">
        <ele>901</ele>
        <time>2020-06-24T15:08:40Z</time>
      </trkpt>
      <trkpt lat="44.97009" lon="5.416">
        <ele>903</ele>
        <time>2020-06-24T15:08:55Z</time>
      </trkpt>
      <trkpt lat="44.9701" lon="5.416">
        <ele>903</ele>
        <time>2020-06-24T15:08:56Z</time>
      </trkpt>
      <trkpt lat="44.97012" lon="5.416">
        <ele>903</ele>
        <time>2020-06-24T15:08:57Z</time>
      </trkpt>
      <trkpt lat="44.97013" lon="5.416">
        <ele>903</ele>
        <time>2020-06-24T15:08:58Z</time>
      </trkpt>
      <trkpt lat="44.97014" lon="5.41599">
        <ele>904</ele>
        <time>2020-06-24T15:08:59Z</time>
      </trkpt>
      <trkpt lat="44.97016" lon="5.41599">
        <ele>904</ele>
        <time>2020-06-24T15:09:00Z</time>
      </trkpt>
      <trkpt lat="44.97043" lon="5.41596">
        <ele>906</ele>
        <time>2020-06-24T15:09:18Z</time>
      </trkpt>
      <trkpt lat="44.97067" lon="5.41593">
        <ele>908</ele>
        <time>2020-06-24T15:09:34Z</time>
      </trkpt>
      <trkpt lat="44.97092" lon="5.4159">
        <ele>909</ele>
        <time>2020-06-24T15:09:51Z</time>
      </trkpt>
      <trkpt lat="44.97116" lon="5.41581">
        <ele>910</ele>
        <time>2020-06-24T15:10:07Z</time>
      </trkpt>
      <trkpt lat="44.97133" lon="5.41581">
        <ele>910</ele>
        <time>2020-06-24T15:10:19Z</time>
      </trkpt>
      <trkpt lat="44.97134" lon="5.41581">
        <ele>910</ele>
        <time>2020-06-24T15:10:20Z</time>
      </trkpt>
      <trkpt lat="44.97136" lon="5.41581">
        <ele>911</ele>
        <time>2020-06-24T15:10:21Z</time>
      </trkpt>
      <trkpt lat="44.97138" lon="5.41581">
        <ele>911</ele>
        <time>2020-06-24T15:10:22Z</time>
      </trkpt>
      <trkpt lat="44.97139" lon="5.41582">
        <ele>911</ele>
        <time>2020-06-24T15:10:23Z</time>
      </trkpt>
      <trkpt lat="44.9714" lon="5.41583">
        <ele>911</ele>
        <time>2020-06-24T15:10:24Z</time>
      </trkpt>
      <trkpt lat="44.97142" lon="5.41584">
        <ele>911</ele>
        <time>2020-06-24T15:10:25Z</time>
      </trkpt>
      <trkpt lat="44.97161" lon="5.41588">
        <ele>911</ele>
        <time>2020-06-24T15:10:40Z</time>
      </trkpt>
      <trkpt lat="44.97168" lon="5.41591">
        <ele>912</ele>
        <time>2020-06-24T15:10:46Z</time>
      </trkpt>
      <trkpt lat="44.9717" lon="5.41591">
        <ele>912</ele>
        <time>2020-06-24T15:10:47Z</time>
      </trkpt>
      <trkpt lat="44.97171" lon="5.41592">
        <ele>912</ele>
        <time>2020-06-24T15:10:48Z</time>
      </trkpt>
      <trkpt lat="44.97172" lon="5.41592">
        <ele>912</ele>
        <time>2020-06-24T15:10:49Z</time>
      </trkpt>
      <trkpt lat="44.97173" lon="5.41593">
        <ele>912</ele>
        <time>2020-06-24T15:10:50Z</time>
      </trkpt>
      <trkpt lat="44.97175" lon="5.41594">
        <ele>912</ele>
        <time>2020-06-24T15:10:51Z</time>
      </trkpt>
      <trkpt lat="44.97176" lon="5.41595">
        <ele>912</ele>
        <time>2020-06-24T15:10:52Z</time>
      </trkpt>
      <trkpt lat="44.97177" lon="5.41594">
        <ele>912</ele>
        <time>2020-06-24T15:10:53Z</time>
      </trkpt>
      <trkpt lat="44.97178" lon="5.41594">
        <ele>912</ele>
        <time>2020-06-24T15:10:54Z</time>
      </trkpt>
      <trkpt lat="44.97179" lon="5.41594">
        <ele>912</ele>
        <time>2020-06-24T15:10:55Z</time>
      </trkpt>
      <trkpt lat="44.9718" lon="5.41595">
        <ele>912</ele>
        <time>2020-06-24T15:10:56Z</time>
      </trkpt>
      <trkpt lat="44.97182" lon="5.41596">
        <ele>912</ele>
        <time>2020-06-24T15:10:57Z</time>
      </trkpt>
      <trkpt lat="44.97183" lon="5.41596">
        <ele>912</ele>
        <time>2020-06-24T15:10:58Z</time>
      </trkpt>
      <trkpt lat="44.97184" lon="5.41597">
        <ele>912</ele>
        <time>2020-06-24T15:10:59Z</time>
      </trkpt>
      <trkpt lat="44.97185" lon="5.41597">
        <ele>912</ele>
        <time>2020-06-24T15:11:00Z</time>
      </trkpt>
      <trkpt lat="44.97186" lon="5.41597">
        <ele>912</ele>
        <time>2020-06-24T15:11:01Z</time>
      </trkpt>
      <trkpt lat="44.97187" lon="5.41598">
        <ele>913</ele>
        <time>2020-06-24T15:11:02Z</time>
      </trkpt>
      <trkpt lat="44.97188" lon="5.416">
        <ele>913</ele>
        <time>2020-06-24T15:11:03Z</time>
      </trkpt>
      <trkpt lat="44.97189" lon="5.41601">
        <ele>913</ele>
        <time>2020-06-24T15:11:04Z</time>
      </trkpt>
      <trkpt lat="44.97193" lon="5.41602">
        <ele>913</ele>
        <time>2020-06-24T15:11:08Z</time>
      </trkpt>
      <trkpt lat="44.97194" lon="5.41602">
        <ele>913</ele>
        <time>2020-06-24T15:11:09Z</time>
      </trkpt>
      <trkpt lat="44.97203" lon="5.4161">
        <ele>914</ele>
        <time>2020-06-24T15:11:21Z</time>
      </trkpt>
      <trkpt lat="44.97208" lon="5.41614">
        <ele>915</ele>
        <time>2020-06-24T15:11:27Z</time>
      </trkpt>
      <trkpt lat="44.97211" lon="5.41616">
        <ele>915</ele>
        <time>2020-06-24T15:11:30Z</time>
      </trkpt>
      <trkpt lat="44.97213" lon="5.41617">
        <ele>915</ele>
        <time>2020-06-24T15:11:32Z</time>
      </trkpt>
      <trkpt lat="44.97219" lon="5.41622">
        <ele>916</ele>
        <time>2020-06-24T15:11:39Z</time>
      </trkpt>
      <trkpt lat="44.97219" lon="5.41623">
        <ele>916</ele>
        <time>2020-06-24T15:11:40Z</time>
      </trkpt>
      <trkpt lat="44.9723" lon="5.41634">
        <ele>917</ele>
        <time>2020-06-24T15:11:54Z</time>
      </trkpt>
      <trkpt lat="44.9724" lon="5.41643">
        <ele>919</ele>
        <time>2020-06-24T15:12:08Z</time>
      </trkpt>
      <trkpt lat="44.97241" lon="5.41646">
        <ele>919</ele>
        <time>2020-06-24T15:12:10Z</time>
      </trkpt>
      <trkpt lat="44.97248" lon="5.41658">
        <ele>920</ele>
        <time>2020-06-24T15:12:23Z</time>
      </trkpt>
      <trkpt lat="44.97258" lon="5.41673">
        <ele>922</ele>
        <time>2020-06-24T15:12:38Z</time>
      </trkpt>
      <trkpt lat="44.97259" lon="5.41673">
        <ele>922</ele>
        <time>2020-06-24T15:12:39Z</time>
      </trkpt>
      <trkpt lat="44.97261" lon="5.41673">
        <ele>922</ele>
        <time>2020-06-24T15:12:40Z</time>
      </trkpt>
      <trkpt lat="44.97262" lon="5.41674">
        <ele>922</ele>
        <time>2020-06-24T15:12:41Z</time>
      </trkpt>
      <trkpt lat="44.9727" lon="5.41689">
        <ele>923</ele>
        <time>2020-06-24T15:12:55Z</time>
      </trkpt>
      <trkpt lat="44.97281" lon="5.41698">
        <ele>924</ele>
        <time>2020-06-24T15:13:07Z</time>
      </trkpt>
      <trkpt lat="44.97282" lon="5.41699">
        <ele>924</ele>
        <time>2020-06-24T15:13:08Z</time>
      </trkpt>
      <trkpt lat="44.97288" lon="5.41705">
        <ele>925</ele>
        <time>2020-06-24T15:13:16Z</time>
      </trkpt>
      <trkpt lat="44.97289" lon="5.41705">
        <ele>925</ele>
        <time>2020-06-24T15:13:17Z</time>
      </trkpt>
      <trkpt lat="44.97293" lon="5.41709">
        <ele>926</ele>
        <time>2020-06-24T15:13:21Z</time>
      </trkpt>
      <trkpt lat="44.97304" lon="5.41719">
        <ele>927</ele>
        <time>2020-06-24T15:13:33Z</time>
      </trkpt>
      <trkpt lat="44.97314" lon="5.41724">
        <ele>928</ele>
        <time>2020-06-24T15:13:43Z</time>
      </trkpt>
      <trkpt lat="44.97317" lon="5.41727">
        <ele>928</ele>
        <time>2020-06-24T15:13:46Z</time>
      </trkpt>
      <trkpt lat="44.97326" lon="5.41728">
        <ele>929</ele>
        <time>2020-06-24T15:13:56Z</time>
      </trkpt>
      <trkpt lat="44.97327" lon="5.41733">
        <ele>929</ele>
        <time>2020-06-24T15:14:02Z</time>
      </trkpt>
      <trkpt lat="44.97316" lon="5.41722">
        <ele>928</ele>
        <time>2020-06-24T15:14:11Z</time>
      </trkpt>
      <trkpt lat="44.97303" lon="5.41714">
        <ele>926</ele>
        <time>2020-06-24T15:14:23Z</time>
      </trkpt>
      <trkpt lat="44.97304" lon="5.41718">
        <ele>927</ele>
        <time>2020-06-24T15:14:27Z</time>
      </trkpt>
      <trkpt lat="44.97309" lon="5.41721">
        <ele>927</ele>
        <time>2020-06-24T15:14:33Z</time>
      </trkpt>
      <trkpt lat="44.97305" lon="5.41745">
        <ele>929</ele>
        <time>2020-06-24T15:14:46Z</time>
      </trkpt>
      <trkpt lat="44.97297" lon="5.4178">
        <ele>932</ele>
        <time>2020-06-24T15:15:02Z</time>
      </trkpt>
      <trkpt lat="44.97293" lon="5.4179">
        <ele>932</ele>
        <time>2020-06-24T15:15:07Z</time>
      </trkpt>
      <trkpt lat="44.97286" lon="5.41811">
        <ele>933</ele>
        <time>2020-06-24T15:15:22Z</time>
      </trkpt>
      <trkpt lat="44.97287" lon="5.41838">
        <ele>935</ele>
        <time>2020-06-24T15:15:38Z</time>
      </trkpt>
      <trkpt lat="44.97285" lon="5.41859">
        <ele>936</ele>
        <time>2020-06-24T15:15:53Z</time>
      </trkpt>
      <trkpt lat="44.97285" lon="5.41865">
        <ele>937</ele>
        <time>2020-06-24T15:15:56Z</time>
      </trkpt>
      <trkpt lat="44.97283" lon="5.41891">
        <ele>938</ele>
        <time>2020-06-24T15:16:09Z</time>
      </trkpt>
      <trkpt lat="44.97281" lon="5.41925">
        <ele>940</ele>
        <time>2020-06-24T15:16:24Z</time>
      </trkpt>
      <trkpt lat="44.97275" lon="5.41957">
        <ele>941</ele>
        <time>2020-06-24T15:16:36Z</time>
      </trkpt>
      <trkpt lat="44.97274" lon="5.41961">
        <ele>942</ele>
        <time>2020-06-24T15:16:38Z</time>
      </trkpt>
      <trkpt lat="44.97265" lon="5.41983">
        <ele>942</ele>
        <time>2020-06-24T15:16:53Z</time>
      </trkpt>
      <trkpt lat="44.97254" lon="5.42009">
        <ele>942</ele>
        <time>2020-06-24T15:17:09Z</time>
      </trkpt>
      <trkpt lat="44.97246" lon="5.42038">
        <ele>942</ele>
        <time>2020-06-24T15:17:23Z</time>
      </trkpt>
      <trkpt lat="44.97237" lon="5.42078">
        <ele>943</ele>
        <time>2020-06-24T15:17:38Z</time>
      </trkpt>
      <trkpt lat="44.97228" lon="5.42096">
        <ele>945</ele>
        <time>2020-06-24T15:17:50Z</time>
      </trkpt>
      <trkpt lat="44.97224" lon="5.42096">
        <ele>945</ele>
        <time>2020-06-24T15:17:54Z</time>
      </trkpt>
      <trkpt lat="44.97222" lon="5.42101">
        <ele>945</ele>
        <time>2020-06-24T15:18:07Z</time>
      </trkpt>
      <trkpt lat="44.97224" lon="5.42102">
        <ele>945</ele>
        <time>2020-06-24T15:18:45Z</time>
      </trkpt>
      <trkpt lat="44.9722" lon="5.42099">
        <ele>945</ele>
        <time>2020-06-24T15:19:20Z</time>
      </trkpt>
      <trkpt lat="44.9722" lon="5.42102">
        <ele>945</ele>
        <time>2020-06-24T15:19:51Z</time>
      </trkpt>
      <trkpt lat="44.97219" lon="5.421">
        <ele>945</ele>
        <time>2020-06-24T15:20:35Z</time>
      </trkpt>
      <trkpt lat="44.97223" lon="5.42099">
        <ele>945</ele>
        <time>2020-06-24T15:21:18Z</time>
      </trkpt>
      <trkpt lat="44.97222" lon="5.42104">
        <ele>945</ele>
        <time>2020-06-24T15:21:55Z</time>
      </trkpt>
      <trkpt lat="44.97222" lon="5.42105">
        <ele>945</ele>
        <time>2020-06-24T15:22:31Z</time>
      </trkpt>
      <trkpt lat="44.97222" lon="5.42102">
        <ele>945</ele>
        <time>2020-06-24T15:23:02Z</time>
      </trkpt>
      <trkpt lat="44.97223" lon="5.421">
        <ele>945</ele>
        <time>2020-06-24T15:23:15Z</time>
      </trkpt>
      <trkpt lat="44.97225" lon="5.42097">
        <ele>945</ele>
        <time>2020-06-24T15:23:18Z</time>
      </trkpt>
      <trkpt lat="44.97225" lon="5.42096">
        <ele>945</ele>
        <time>2020-06-24T15:23:19Z</time>
      </trkpt>
      <trkpt lat="44.97227" lon="5.42096">
        <ele>945</ele>
        <time>2020-06-24T15:23:20Z</time>
      </trkpt>
      <trkpt lat="44.97228" lon="5.42095">
        <ele>945</ele>
        <time>2020-06-24T15:23:21Z</time>
      </trkpt>
      <trkpt lat="44.97237" lon="5.42097">
        <ele>944</ele>
        <time>2020-06-24T15:23:32Z</time>
      </trkpt>
      <trkpt lat="44.9724" lon="5.42097">
        <ele>944</ele>
        <time>2020-06-24T15:23:36Z</time>
      </trkpt>
      <trkpt lat="44.97251" lon="5.42099">
        <ele>944</ele>
        <time>2020-06-24T15:23:48Z</time>
      </trkpt>
      <trkpt lat="44.97253" lon="5.42101">
        <ele>944</ele>
        <time>2020-06-24T15:23:51Z</time>
      </trkpt>
      <trkpt lat="44.97264" lon="5.42101">
        <ele>945</ele>
        <time>2020-06-24T15:24:01Z</time>
      </trkpt>
      <trkpt lat="44.97275" lon="5.42091">
        <ele>947</ele>
        <time>2020-06-24T15:24:14Z</time>
      </trkpt>
      <trkpt lat="44.97287" lon="5.42088">
        <ele>949</ele>
        <time>2020-06-24T15:24:28Z</time>
      </trkpt>
      <trkpt lat="44.97297" lon="5.42088">
        <ele>951</ele>
        <time>2020-06-24T15:24:38Z</time>
      </trkpt>
      <trkpt lat="44.97302" lon="5.42087">
        <ele>952</ele>
        <time>2020-06-24T15:24:44Z</time>
      </trkpt>
      <trkpt lat="44.97318" lon="5.42081">
        <ele>954</ele>
        <time>2020-06-24T15:25:00Z</time>
      </trkpt>
      <trkpt lat="44.97333" lon="5.42078">
        <ele>957</ele>
        <time>2020-06-24T15:25:16Z</time>
      </trkpt>
      <trkpt lat="44.97334" lon="5.42078">
        <ele>957</ele>
        <time>2020-06-24T15:25:17Z</time>
      </trkpt>
      <trkpt lat="44.97344" lon="5.42076">
        <ele>958</ele>
        <time>2020-06-24T15:25:27Z</time>
      </trkpt>
      <trkpt lat="44.97354" lon="5.42075">
        <ele>959</ele>
        <time>2020-06-24T15:25:37Z</time>
      </trkpt>
      <trkpt lat="44.97363" lon="5.42074">
        <ele>960</ele>
        <time>2020-06-24T15:25:50Z</time>
      </trkpt>
      <trkpt lat="44.97363" lon="5.42074">
        <ele>959</ele>
        <time>2020-06-24T15:26:07Z</time>
      </trkpt>
      <trkpt lat="44.97366" lon="5.42072">
        <ele>960</ele>
        <time>2020-06-24T15:26:42Z</time>
      </trkpt>
      <trkpt lat="44.97365" lon="5.42076">
        <ele>959</ele>
        <time>2020-06-24T15:27:14Z</time>
      </trkpt>
      <trkpt lat="44.97365" lon="5.42075">
        <ele>960</ele>
        <time>2020-06-24T15:27:42Z</time>
      </trkpt>
      <trkpt lat="44.97371" lon="5.42077">
        <ele>960</ele>
        <time>2020-06-24T15:27:58Z</time>
      </trkpt>
      <trkpt lat="44.97382" lon="5.4208">
        <ele>960</ele>
        <time>2020-06-24T15:28:03Z</time>
      </trkpt>
      <trkpt lat="44.97398" lon="5.42081">
        <ele>961</ele>
        <time>2020-06-24T15:28:15Z</time>
      </trkpt>
      <trkpt lat="44.97401" lon="5.42081">
        <ele>961</ele>
        <time>2020-06-24T15:28:17Z</time>
      </trkpt>
      <trkpt lat="44.9741" lon="5.4208">
        <ele>961</ele>
        <time>2020-06-24T15:28:23Z</time>
      </trkpt>
      <trkpt lat="44.97424" lon="5.42074">
        <ele>961</ele>
        <time>2020-06-24T15:28:32Z</time>
      </trkpt>
      <trkpt lat="44.97446" lon="5.42077">
        <ele>961</ele>
        <time>2020-06-24T15:28:47Z</time>
      </trkpt>
      <trkpt lat="44.97454" lon="5.42079">
        <ele>961</ele>
        <time>2020-06-24T15:28:52Z</time>
      </trkpt>
      <trkpt lat="44.97461" lon="5.42082">
        <ele>961</ele>
        <time>2020-06-24T15:28:56Z</time>
      </trkpt>
      <trkpt lat="44.97485" lon="5.42093">
        <ele>961</ele>
        <time>2020-06-24T15:29:12Z</time>
      </trkpt>
      <trkpt lat="44.97501" lon="5.42103">
        <ele>961</ele>
        <time>2020-06-24T15:29:26Z</time>
      </trkpt>
      <trkpt lat="44.97504" lon="5.42103">
        <ele>961</ele>
        <time>2020-06-24T15:29:50Z</time>
      </trkpt>
      <trkpt lat="44.97505" lon="5.42104">
        <ele>961</ele>
        <time>2020-06-24T15:30:20Z</time>
      </trkpt>
      <trkpt lat="44.97519" lon="5.42115">
        <ele>962</ele>
        <time>2020-06-24T15:30:31Z</time>
      </trkpt>
      <trkpt lat="44.97537" lon="5.42127">
        <ele>961</ele>
        <time>2020-06-24T15:30:44Z</time>
      </trkpt>
      <trkpt lat="44.9756" lon="5.42139">
        <ele>961</ele>
        <time>2020-06-24T15:30:58Z</time>
      </trkpt>
      <trkpt lat="44.97562" lon="5.4214">
        <ele>961</ele>
        <time>2020-06-24T15:30:59Z</time>
      </trkpt>
      <trkpt lat="44.97588" lon="5.42152">
        <ele>960</ele>
        <time>2020-06-24T15:31:13Z</time>
      </trkpt>
      <trkpt lat="44.97589" lon="5.42152">
        <ele>960</ele>
        <time>2020-06-24T15:31:14Z</time>
      </trkpt>
      <trkpt lat="44.97602" lon="5.4216">
        <ele>960</ele>
        <time>2020-06-24T15:31:26Z</time>
      </trkpt>
      <trkpt lat="44.97605" lon="5.42161">
        <ele>960</ele>
        <time>2020-06-24T15:31:57Z</time>
      </trkpt>
      <trkpt lat="44.97616" lon="5.42163">
        <ele>960</ele>
        <time>2020-06-24T15:32:11Z</time>
      </trkpt>
      <trkpt lat="44.97627" lon="5.42167">
        <ele>960</ele>
        <time>2020-06-24T15:32:27Z</time>
      </trkpt>
      <trkpt lat="44.97631" lon="5.42167">
        <ele>960</ele>
        <time>2020-06-24T15:32:30Z</time>
      </trkpt>
      <trkpt lat="44.97658" lon="5.42174">
        <ele>960</ele>
        <time>2020-06-24T15:32:44Z</time>
      </trkpt>
      <trkpt lat="44.97686" lon="5.42179">
        <ele>959</ele>
        <time>2020-06-24T15:32:57Z</time>
      </trkpt>
      <trkpt lat="44.97693" lon="5.42183">
        <ele>959</ele>
        <time>2020-06-24T15:33:08Z</time>
      </trkpt>
      <trkpt lat="44.97697" lon="5.42184">
        <ele>959</ele>
        <time>2020-06-24T15:33:22Z</time>
      </trkpt>
      <trkpt lat="44.97698" lon="5.42186">
        <ele>959</ele>
        <time>2020-06-24T15:33:47Z</time>
      </trkpt>
      <trkpt lat="44.97705" lon="5.4219">
        <ele>959</ele>
        <time>2020-06-24T15:34:05Z</time>
      </trkpt>
      <trkpt lat="44.97732" lon="5.42212">
        <ele>953</ele>
        <time>2020-06-24T15:34:15Z</time>
      </trkpt>
      <trkpt lat="44.97744" lon="5.42218">
        <ele>951</ele>
        <time>2020-06-24T15:34:20Z</time>
      </trkpt>
      <trkpt lat="44.97757" lon="5.42234">
        <ele>948</ele>
        <time>2020-06-24T15:34:27Z</time>
      </trkpt>
      <trkpt lat="44.97793" lon="5.42239">
        <ele>942</ele>
        <time>2020-06-24T15:34:38Z</time>
      </trkpt>
      <trkpt lat="44.97793" lon="5.42236">
        <ele>942</ele>
        <time>2020-06-24T15:34:52Z</time>
      </trkpt>
      <trkpt lat="44.97793" lon="5.42237">
        <ele>942</ele>
        <time>2020-06-24T15:34:55Z</time>
      </trkpt>
      <trkpt lat="44.97796" lon="5.42233">
        <ele>941</ele>
        <time>2020-06-24T15:34:58Z</time>
      </trkpt>
      <trkpt lat="44.97801" lon="5.42237">
        <ele>940</ele>
        <time>2020-06-24T15:35:10Z</time>
      </trkpt>
      <trkpt lat="44.97802" lon="5.42235">
        <ele>940</ele>
        <time>2020-06-24T15:35:44Z</time>
      </trkpt>
      <trkpt lat="44.978" lon="5.42235">
        <ele>940</ele>
        <time>2020-06-24T15:36:16Z</time>
      </trkpt>
      <trkpt lat="44.978" lon="5.42239">
        <ele>940</ele>
        <time>2020-06-24T15:36:20Z</time>
      </trkpt>
      <trkpt lat="44.97799" lon="5.42241">
        <ele>940</ele>
        <time>2020-06-24T15:36:21Z</time>
      </trkpt>
      <trkpt lat="44.97792" lon="5.42269">
        <ele>940</ele>
        <time>2020-06-24T15:36:31Z</time>
      </trkpt>
      <trkpt lat="44.97782" lon="5.42288">
        <ele>938</ele>
        <time>2020-06-24T15:36:36Z</time>
      </trkpt>
      <trkpt lat="44.97773" lon="5.42304">
        <ele>936</ele>
        <time>2020-06-24T15:36:43Z</time>
      </trkpt>
      <trkpt lat="44.97772" lon="5.42306">
        <ele>935</ele>
        <time>2020-06-24T15:36:44Z</time>
      </trkpt>
      <trkpt lat="44.97769" lon="5.42309">
        <ele>935</ele>
        <time>2020-06-24T15:36:54Z</time>
      </trkpt>
      <trkpt lat="44.9777" lon="5.42308">
        <ele>935</ele>
        <time>2020-06-24T15:37:15Z</time>
      </trkpt>
      <trkpt lat="44.97769" lon="5.42306">
        <ele>936</ele>
        <time>2020-06-24T15:37:42Z</time>
      </trkpt>
      <trkpt lat="44.97764" lon="5.42309">
        <ele>935</ele>
        <time>2020-06-24T15:38:08Z</time>
      </trkpt>
      <trkpt lat="44.97764" lon="5.4231">
        <ele>935</ele>
        <time>2020-06-24T15:38:17Z</time>
      </trkpt>
      <trkpt lat="44.97763" lon="5.42311">
        <ele>935</ele>
        <time>2020-06-24T15:38:18Z</time>
      </trkpt>
      <trkpt lat="44.97763" lon="5.42313">
        <ele>935</ele>
        <time>2020-06-24T15:38:19Z</time>
      </trkpt>
      <trkpt lat="44.97762" lon="5.42315">
        <ele>934</ele>
        <time>2020-06-24T15:38:20Z</time>
      </trkpt>
      <trkpt lat="44.97761" lon="5.42317">
        <ele>934</ele>
        <time>2020-06-24T15:38:21Z</time>
      </trkpt>
      <trkpt lat="44.97759" lon="5.42321">
        <ele>933</ele>
        <time>2020-06-24T15:38:24Z</time>
      </trkpt>
      <trkpt lat="44.9776" lon="5.42326">
        <ele>933</ele>
        <time>2020-06-24T15:38:27Z</time>
      </trkpt>
      <trkpt lat="44.9776" lon="5.42327">
        <ele>932</ele>
        <time>2020-06-24T15:38:28Z</time>
      </trkpt>
      <trkpt lat="44.97761" lon="5.42329">
        <ele>932</ele>
        <time>2020-06-24T15:38:29Z</time>
      </trkpt>
      <trkpt lat="44.97763" lon="5.4233">
        <ele>932</ele>
        <time>2020-06-24T15:38:30Z</time>
      </trkpt>
      <trkpt lat="44.97764" lon="5.42332">
        <ele>931</ele>
        <time>2020-06-24T15:38:31Z</time>
      </trkpt>
      <trkpt lat="44.97765" lon="5.42333">
        <ele>931</ele>
        <time>2020-06-24T15:38:32Z</time>
      </trkpt>
      <trkpt lat="44.97784" lon="5.42347">
        <ele>928</ele>
        <time>2020-06-24T15:38:42Z</time>
      </trkpt>
      <trkpt lat="44.97785" lon="5.42349">
        <ele>928</ele>
        <time>2020-06-24T15:38:43Z</time>
      </trkpt>
      <trkpt lat="44.97798" lon="5.42369">
        <ele>923</ele>
        <time>2020-06-24T15:38:50Z</time>
      </trkpt>
      <trkpt lat="44.97802" lon="5.42378">
        <ele>922</ele>
        <time>2020-06-24T15:38:52Z</time>
      </trkpt>
      <trkpt lat="44.97814" lon="5.42403">
        <ele>918</ele>
        <time>2020-06-24T15:39:01Z</time>
      </trkpt>
      <trkpt lat="44.97826" lon="5.42429">
        <ele>913</ele>
        <time>2020-06-24T15:39:09Z</time>
      </trkpt>
      <trkpt lat="44.97839" lon="5.42458">
        <ele>908</ele>
        <time>2020-06-24T15:39:17Z</time>
      </trkpt>
      <trkpt lat="44.97841" lon="5.42465">
        <ele>907</ele>
        <time>2020-06-24T15:39:19Z</time>
      </trkpt>
      <trkpt lat="44.97849" lon="5.42488">
        <ele>905</ele>
        <time>2020-06-24T15:39:27Z</time>
      </trkpt>
      <trkpt lat="44.97853" lon="5.42505">
        <ele>903</ele>
        <time>2020-06-24T15:39:33Z</time>
      </trkpt>
      <trkpt lat="44.9786" lon="5.42516">
        <ele>902</ele>
        <time>2020-06-24T15:39:37Z</time>
      </trkpt>
      <trkpt lat="44.97863" lon="5.42526">
        <ele>902</ele>
        <time>2020-06-24T15:39:40Z</time>
      </trkpt>
      <trkpt lat="44.97865" lon="5.42535">
        <ele>901</ele>
        <time>2020-06-24T15:39:43Z</time>
      </trkpt>
      <trkpt lat="44.97872" lon="5.42551">
        <ele>901</ele>
        <time>2020-06-24T15:39:48Z</time>
      </trkpt>
      <trkpt lat="44.97886" lon="5.42601">
        <ele>897</ele>
        <time>2020-06-24T15:40:00Z</time>
      </trkpt>
      <trkpt lat="44.97896" lon="5.4265">
        <ele>894</ele>
        <time>2020-06-24T15:40:12Z</time>
      </trkpt>
      <trkpt lat="44.97895" lon="5.4266">
        <ele>895</ele>
        <time>2020-06-24T15:40:22Z</time>
      </trkpt>
      <trkpt lat="44.97894" lon="5.42663">
        <ele>895</ele>
        <time>2020-06-24T15:40:32Z</time>
      </trkpt>
      <trkpt lat="44.97887" lon="5.42677">
        <ele>896</ele>
        <time>2020-06-24T15:40:45Z</time>
      </trkpt>
      <trkpt lat="44.97876" lon="5.42682">
        <ele>897</ele>
        <time>2020-06-24T15:40:58Z</time>
      </trkpt>
      <trkpt lat="44.97864" lon="5.42683">
        <ele>897</ele>
        <time>2020-06-24T15:41:13Z</time>
      </trkpt>
      <trkpt lat="44.97858" lon="5.42687">
        <ele>897</ele>
        <time>2020-06-24T15:41:35Z</time>
      </trkpt>
      <trkpt lat="44.97844" lon="5.4269">
        <ele>896</ele>
        <time>2020-06-24T15:41:50Z</time>
      </trkpt>
      <trkpt lat="44.97832" lon="5.42689">
        <ele>895</ele>
        <time>2020-06-24T15:42:06Z</time>
      </trkpt>
      <trkpt lat="44.97835" lon="5.42681">
        <ele>895</ele>
        <time>2020-06-24T15:42:13Z</time>
      </trkpt>
      <trkpt lat="44.97833" lon="5.42663">
        <ele>895</ele>
        <time>2020-06-24T15:42:30Z</time>
      </trkpt>
      <trkpt lat="44.97831" lon="5.42663">
        <ele>895</ele>
        <time>2020-06-24T15:42:46Z</time>
      </trkpt>
      <trkpt lat="44.97832" lon="5.4266">
        <ele>895</ele>
        <time>2020-06-24T15:43:20Z</time>
      </trkpt>
      <trkpt lat="44.97832" lon="5.42664">
        <ele>895</ele>
        <time>2020-06-24T15:43:50Z</time>
      </trkpt>
      <trkpt lat="44.97833" lon="5.42663">
        <ele>895</ele>
        <time>2020-06-24T15:44:16Z</time>
      </trkpt>
      <trkpt lat="44.97836" lon="5.42649">
        <ele>895</ele>
        <time>2020-06-24T15:44:26Z</time>
      </trkpt>
      <trkpt lat="44.9784" lon="5.42644">
        <ele>896</ele>
        <time>2020-06-24T15:44:31Z</time>
      </trkpt>
      <trkpt lat="44.97842" lon="5.42634">
        <ele>897</ele>
        <time>2020-06-24T15:44:45Z</time>
      </trkpt>
      <trkpt lat="44.97842" lon="5.42634">
        <ele>897</ele>
        <time>2020-06-24T15:45:09Z</time>
      </trkpt>
      <trkpt lat="44.97844" lon="5.42632">
        <ele>897</ele>
        <time>2020-06-24T15:45:22Z</time>
      </trkpt>
      <trkpt lat="44.9784" lon="5.42632">
        <ele>897</ele>
        <time>2020-06-24T15:45:46Z</time>
      </trkpt>
      <trkpt lat="44.9784" lon="5.42631">
        <ele>897</ele>
        <time>2020-06-24T15:46:13Z</time>
      </trkpt>
      <trkpt lat="44.97843" lon="5.42631">
        <ele>897</ele>
        <time>2020-06-24T15:46:49Z</time>
      </trkpt>
      <trkpt lat="44.97841" lon="5.42632">
        <ele>897</ele>
        <time>2020-06-24T15:47:13Z</time>
      </trkpt>
      <trkpt lat="44.97842" lon="5.42633">
        <ele>897</ele>
        <time>2020-06-24T15:47:42Z</time>
      </trkpt>
      <trkpt lat="44.97844" lon="5.42635">
        <ele>897</ele>
        <time>2020-06-24T15:48:07Z</time>
      </trkpt>
      <trkpt lat="44.97844" lon="5.42637">
        <ele>896</ele>
        <time>2020-06-24T15:48:27Z</time>
      </trkpt>
      <trkpt lat="44.97842" lon="5.42645">
        <ele>896</ele>
        <time>2020-06-24T15:48:36Z</time>
      </trkpt>
      <trkpt lat="44.97842" lon="5.42647">
        <ele>896</ele>
        <time>2020-06-24T15:48:37Z</time>
      </trkpt>
      <trkpt lat="44.97843" lon="5.42648">
        <ele>896</ele>
        <time>2020-06-24T15:48:38Z</time>
      </trkpt>
      <trkpt lat="44.97843" lon="5.4265">
        <ele>896</ele>
        <time>2020-06-24T15:48:39Z</time>
      </trkpt>
      <trkpt lat="44.97843" lon="5.42652">
        <ele>896</ele>
        <time>2020-06-24T15:48:40Z</time>
      </trkpt>
      <trkpt lat="44.9784" lon="5.42657">
        <ele>896</ele>
        <time>2020-06-24T15:48:44Z</time>
      </trkpt>
      <trkpt lat="44.97835" lon="5.42665">
        <ele>895</ele>
        <time>2020-06-24T15:48:49Z</time>
      </trkpt>
      <trkpt lat="44.97828" lon="5.42692">
        <ele>895</ele>
        <time>2020-06-24T15:49:03Z</time>
      </trkpt>
      <trkpt lat="44.97826" lon="5.42698">
        <ele>895</ele>
        <time>2020-06-24T15:49:12Z</time>
      </trkpt>
      <trkpt lat="44.97819" lon="5.42698">
        <ele>894</ele>
        <time>2020-06-24T15:49:19Z</time>
      </trkpt>
      <trkpt lat="44.97816" lon="5.42699">
        <ele>894</ele>
        <time>2020-06-24T15:49:21Z</time>
      </trkpt>
      <trkpt lat="44.97799" lon="5.42697">
        <ele>891</ele>
        <time>2020-06-24T15:49:32Z</time>
      </trkpt>
      <trkpt lat="44.97791" lon="5.42696">
        <ele>890</ele>
        <time>2020-06-24T15:49:36Z</time>
      </trkpt>
      <trkpt lat="44.97769" lon="5.42696">
        <ele>886</ele>
        <time>2020-06-24T15:49:49Z</time>
      </trkpt>
      <trkpt lat="44.97747" lon="5.42704">
        <ele>883</ele>
        <time>2020-06-24T15:50:03Z</time>
      </trkpt>
      <trkpt lat="44.97738" lon="5.42719">
        <ele>886</ele>
        <time>2020-06-24T15:50:14Z</time>
      </trkpt>
      <trkpt lat="44.97737" lon="5.42719">
        <ele>886</ele>
        <time>2020-06-24T15:50:15Z</time>
      </trkpt>
      <trkpt lat="44.97735" lon="5.4272">
        <ele>886</ele>
        <time>2020-06-24T15:50:16Z</time>
      </trkpt>
      <trkpt lat="44.97733" lon="5.42721">
        <ele>886</ele>
        <time>2020-06-24T15:50:17Z</time>
      </trkpt>
      <trkpt lat="44.97727" lon="5.42724">
        <ele>886</ele>
        <time>2020-06-24T15:50:21Z</time>
      </trkpt>
      <trkpt lat="44.97717" lon="5.42725">
        <ele>886</ele>
        <time>2020-06-24T15:50:26Z</time>
      </trkpt>
      <trkpt lat="44.97709" lon="5.42721">
        <ele>885</ele>
        <time>2020-06-24T15:50:36Z</time>
      </trkpt>
      <trkpt lat="44.97685" lon="5.42717">
        <ele>884</ele>
        <time>2020-06-24T15:50:48Z</time>
      </trkpt>
      <trkpt lat="44.97662" lon="5.42724">
        <ele>884</ele>
        <time>2020-06-24T15:50:59Z</time>
      </trkpt>
      <trkpt lat="44.97647" lon="5.42734">
        <ele>885</ele>
        <time>2020-06-24T15:51:12Z</time>
      </trkpt>
      <trkpt lat="44.97643" lon="5.42737">
        <ele>885</ele>
        <time>2020-06-24T15:51:26Z</time>
      </trkpt>
      <trkpt lat="44.9764" lon="5.42738">
        <ele>885</ele>
        <time>2020-06-24T15:51:53Z</time>
      </trkpt>
      <trkpt lat="44.9764" lon="5.42741">
        <ele>885</ele>
        <time>2020-06-24T15:52:20Z</time>
      </trkpt>
      <trkpt lat="44.97636" lon="5.42742">
        <ele>885</ele>
        <time>2020-06-24T15:52:42Z</time>
      </trkpt>
      <trkpt lat="44.97614" lon="5.42752">
        <ele>885</ele>
        <time>2020-06-24T15:52:55Z</time>
      </trkpt>
      <trkpt lat="44.97586" lon="5.42765">
        <ele>884</ele>
        <time>2020-06-24T15:53:09Z</time>
      </trkpt>
      <trkpt lat="44.97578" lon="5.42766">
        <ele>884</ele>
        <time>2020-06-24T15:53:14Z</time>
      </trkpt>
      <trkpt lat="44.97549" lon="5.42776">
        <ele>883</ele>
        <time>2020-06-24T15:53:25Z</time>
      </trkpt>
      <trkpt lat="44.97509" lon="5.42794">
        <ele>882</ele>
        <time>2020-06-24T15:53:36Z</time>
      </trkpt>
      <trkpt lat="44.97493" lon="5.42798">
        <ele>882</ele>
        <time>2020-06-24T15:53:41Z</time>
      </trkpt>
      <trkpt lat="44.97491" lon="5.42797">
        <ele>882</ele>
        <time>2020-06-24T15:53:42Z</time>
      </trkpt>
      <trkpt lat="44.97488" lon="5.42797">
        <ele>882</ele>
        <time>2020-06-24T15:53:43Z</time>
      </trkpt>
      <trkpt lat="44.97486" lon="5.42797">
        <ele>882</ele>
        <time>2020-06-24T15:53:44Z</time>
      </trkpt>
      <trkpt lat="44.97484" lon="5.42798">
        <ele>882</ele>
        <time>2020-06-24T15:53:45Z</time>
      </trkpt>
      <trkpt lat="44.97455" lon="5.42799">
        <ele>881</ele>
        <time>2020-06-24T15:53:56Z</time>
      </trkpt>
      <trkpt lat="44.9744" lon="5.42797">
        <ele>880</ele>
        <time>2020-06-24T15:54:01Z</time>
      </trkpt>
      <trkpt lat="44.97438" lon="5.42798">
        <ele>880</ele>
        <time>2020-06-24T15:54:02Z</time>
      </trkpt>
      <trkpt lat="44.97435" lon="5.42798">
        <ele>880</ele>
        <time>2020-06-24T15:54:03Z</time>
      </trkpt>
      <trkpt lat="44.97433" lon="5.42798">
        <ele>880</ele>
        <time>2020-06-24T15:54:04Z</time>
      </trkpt>
      <trkpt lat="44.9743" lon="5.42798">
        <ele>880</ele>
        <time>2020-06-24T15:54:05Z</time>
      </trkpt>
      <trkpt lat="44.97408" lon="5.42788">
        <ele>877</ele>
        <time>2020-06-24T15:54:15Z</time>
      </trkpt>
      <trkpt lat="44.97361" lon="5.42789">
        <ele>874</ele>
        <time>2020-06-24T15:54:27Z</time>
      </trkpt>
      <trkpt lat="44.97339" lon="5.42797">
        <ele>873</ele>
        <time>2020-06-24T15:54:37Z</time>
      </trkpt>
      <trkpt lat="44.97317" lon="5.42814">
        <ele>873</ele>
        <time>2020-06-24T15:54:50Z</time>
      </trkpt>
      <trkpt lat="44.97291" lon="5.42824">
        <ele>874</ele>
        <time>2020-06-24T15:55:05Z</time>
      </trkpt>
      <trkpt lat="44.97264" lon="5.42821">
        <ele>873</ele>
        <time>2020-06-24T15:55:19Z</time>
      </trkpt>
      <trkpt lat="44.97231" lon="5.42824">
        <ele>874</ele>
        <time>2020-06-24T15:55:33Z</time>
      </trkpt>
      <trkpt lat="44.97204" lon="5.42827">
        <ele>876</ele>
        <time>2020-06-24T15:55:47Z</time>
      </trkpt>
      <trkpt lat="44.97179" lon="5.42836">
        <ele>877</ele>
        <time>2020-06-24T15:56:01Z</time>
      </trkpt>
      <trkpt lat="44.97162" lon="5.42853">
        <ele>879</ele>
        <time>2020-06-24T15:56:14Z</time>
      </trkpt>
      <trkpt lat="44.97149" lon="5.42876">
        <ele>881</ele>
        <time>2020-06-24T15:56:29Z</time>
      </trkpt>
      <trkpt lat="44.97148" lon="5.42878">
        <ele>881</ele>
        <time>2020-06-24T15:56:30Z</time>
      </trkpt>
      <trkpt lat="44.97147" lon="5.42879">
        <ele>881</ele>
        <time>2020-06-24T15:56:31Z</time>
      </trkpt>
      <trkpt lat="44.97146" lon="5.42881">
        <ele>881</ele>
        <time>2020-06-24T15:56:32Z</time>
      </trkpt>
      <trkpt lat="44.97145" lon="5.42883">
        <ele>881</ele>
        <time>2020-06-24T15:56:33Z</time>
      </trkpt>
      <trkpt lat="44.97132" lon="5.42908">
        <ele>882</ele>
        <time>2020-06-24T15:56:48Z</time>
      </trkpt>
      <trkpt lat="44.97131" lon="5.4291">
        <ele>882</ele>
        <time>2020-06-24T15:56:49Z</time>
      </trkpt>
      <trkpt lat="44.9713" lon="5.42911">
        <ele>882</ele>
        <time>2020-06-24T15:56:50Z</time>
      </trkpt>
      <trkpt lat="44.97128" lon="5.42912">
        <ele>882</ele>
        <time>2020-06-24T15:56:51Z</time>
      </trkpt>
      <trkpt lat="44.97127" lon="5.42913">
        <ele>882</ele>
        <time>2020-06-24T15:56:52Z</time>
      </trkpt>
      <trkpt lat="44.97126" lon="5.42914">
        <ele>882</ele>
        <time>2020-06-24T15:56:53Z</time>
      </trkpt>
      <trkpt lat="44.97118" lon="5.42921">
        <ele>882</ele>
        <time>2020-06-24T15:57:02Z</time>
      </trkpt>
      <trkpt lat="44.97122" lon="5.42921">
        <ele>883</ele>
        <time>2020-06-24T15:57:06Z</time>
      </trkpt>
      <trkpt lat="44.97125" lon="5.42918">
        <ele>882</ele>
        <time>2020-06-24T15:57:21Z</time>
      </trkpt>
      <trkpt lat="44.97124" lon="5.42918">
        <ele>882</ele>
        <time>2020-06-24T15:57:50Z</time>
      </trkpt>
      <trkpt lat="44.97125" lon="5.42918">
        <ele>882</ele>
        <time>2020-06-24T15:58:17Z</time>
      </trkpt>
      <trkpt lat="44.97124" lon="5.4292">
        <ele>882</ele>
        <time>2020-06-24T15:58:35Z</time>
      </trkpt>
      <trkpt lat="44.97123" lon="5.42919">
        <ele>882</ele>
        <time>2020-06-24T15:58:36Z</time>
      </trkpt>
      <trkpt lat="44.97122" lon="5.42918">
        <ele>882</ele>
        <time>2020-06-24T15:58:37Z</time>
      </trkpt>
      <trkpt lat="44.9712" lon="5.42917">
        <ele>882</ele>
        <time>2020-06-24T15:58:38Z</time>
      </trkpt>
      <trkpt lat="44.97117" lon="5.42916">
        <ele>882</ele>
        <time>2020-06-24T15:58:39Z</time>
      </trkpt>
      <trkpt lat="44.97115" lon="5.42916">
        <ele>882</ele>
        <time>2020-06-24T15:58:40Z</time>
      </trkpt>
      <trkpt lat="44.97086" lon="5.42906">
        <ele>881</ele>
        <time>2020-06-24T15:58:53Z</time>
      </trkpt>
      <trkpt lat="44.97052" lon="5.42898">
        <ele>881</ele>
        <time>2020-06-24T15:59:05Z</time>
      </trkpt>
      <trkpt lat="44.97022" lon="5.42897">
        <ele>880</ele>
        <time>2020-06-24T15:59:18Z</time>
      </trkpt>
      <trkpt lat="44.97002" lon="5.42898">
        <ele>880</ele>
        <time>2020-06-24T15:59:29Z</time>
      </trkpt>
      <trkpt lat="44.96972" lon="5.429">
        <ele>880</ele>
        <time>2020-06-24T15:59:42Z</time>
      </trkpt>
      <trkpt lat="44.96941" lon="5.42901">
        <ele>878</ele>
        <time>2020-06-24T15:59:56Z</time>
      </trkpt>
      <trkpt lat="44.96912" lon="5.42905">
        <ele>877</ele>
        <time>2020-06-24T16:00:10Z</time>
      </trkpt>
      <trkpt lat="44.96909" lon="5.42905">
        <ele>876</ele>
        <time>2020-06-24T16:00:11Z</time>
      </trkpt>
      <trkpt lat="44.96907" lon="5.42905">
        <ele>876</ele>
        <time>2020-06-24T16:00:12Z</time>
      </trkpt>
      <trkpt lat="44.96905" lon="5.42904">
        <ele>876</ele>
        <time>2020-06-24T16:00:13Z</time>
      </trkpt>
      <trkpt lat="44.96903" lon="5.42902">
        <ele>876</ele>
        <time>2020-06-24T16:00:14Z</time>
      </trkpt>
      <trkpt lat="44.96901" lon="5.42902">
        <ele>876</ele>
        <time>2020-06-24T16:00:15Z</time>
      </trkpt>
      <trkpt lat="44.969" lon="5.42901">
        <ele>876</ele>
        <time>2020-06-24T16:00:16Z</time>
      </trkpt>
      <trkpt lat="44.96898" lon="5.42899">
        <ele>876</ele>
        <time>2020-06-24T16:00:17Z</time>
      </trkpt>
      <trkpt lat="44.96896" lon="5.42898">
        <ele>875</ele>
        <time>2020-06-24T16:00:18Z</time>
      </trkpt>
      <trkpt lat="44.96894" lon="5.42897">
        <ele>875</ele>
        <time>2020-06-24T16:00:19Z</time>
      </trkpt>
      <trkpt lat="44.96892" lon="5.42896">
        <ele>875</ele>
        <time>2020-06-24T16:00:20Z</time>
      </trkpt>
      <trkpt lat="44.9689" lon="5.42895">
        <ele>875</ele>
        <time>2020-06-24T16:00:21Z</time>
      </trkpt>
      <trkpt lat="44.96888" lon="5.42894">
        <ele>875</ele>
        <time>2020-06-24T16:00:22Z</time>
      </trkpt>
      <trkpt lat="44.96886" lon="5.42892">
        <ele>875</ele>
        <time>2020-06-24T16:00:23Z</time>
      </trkpt>
      <trkpt lat="44.96856" lon="5.42881">
        <ele>873</ele>
        <time>2020-06-24T16:00:35Z</time>
      </trkpt>
      <trkpt lat="44.96832" lon="5.42891">
        <ele>872</ele>
        <time>2020-06-24T16:00:46Z</time>
      </trkpt>
      <trkpt lat="44.96807" lon="5.42906">
        <ele>872</ele>
        <time>2020-06-24T16:00:58Z</time>
      </trkpt>
      <trkpt lat="44.96806" lon="5.42954">
        <ele>871</ele>
        <time>2020-06-24T16:01:09Z</time>
      </trkpt>
      <trkpt lat="44.96814" lon="5.43002">
        <ele>871</ele>
        <time>2020-06-24T16:01:21Z</time>
      </trkpt>
      <trkpt lat="44.96827" lon="5.43009">
        <ele>871</ele>
        <time>2020-06-24T16:01:27Z</time>
      </trkpt>
      <trkpt lat="44.96829" lon="5.43008">
        <ele>871</ele>
        <time>2020-06-24T16:01:28Z</time>
      </trkpt>
      <trkpt lat="44.9683" lon="5.43007">
        <ele>871</ele>
        <time>2020-06-24T16:01:29Z</time>
      </trkpt>
      <trkpt lat="44.9683" lon="5.43005">
        <ele>871</ele>
        <time>2020-06-24T16:01:30Z</time>
      </trkpt>
      <trkpt lat="44.96831" lon="5.43003">
        <ele>871</ele>
        <time>2020-06-24T16:01:31Z</time>
      </trkpt>
      <trkpt lat="44.96831" lon="5.43001">
        <ele>871</ele>
        <time>2020-06-24T16:01:32Z</time>
      </trkpt>
      <trkpt lat="44.96828" lon="5.42971">
        <ele>871</ele>
        <time>2020-06-24T16:01:45Z</time>
      </trkpt>
      <trkpt lat="44.96829" lon="5.42939">
        <ele>872</ele>
        <time>2020-06-24T16:01:59Z</time>
      </trkpt>
      <trkpt lat="44.96827" lon="5.42911">
        <ele>872</ele>
        <time>2020-06-24T16:02:12Z</time>
      </trkpt>
      <trkpt lat="44.96818" lon="5.42908">
        <ele>872</ele>
        <time>2020-06-24T16:02:25Z</time>
      </trkpt>
      <trkpt lat="44.96815" lon="5.42908">
        <ele>872</ele>
        <time>2020-06-24T16:02:52Z</time>
      </trkpt>
      <trkpt lat="44.96816" lon="5.42908">
        <ele>872</ele>
        <time>2020-06-24T16:03:16Z</time>
      </trkpt>
    </trkseg>
  </trk>
</gpx>